<?xml version="1.0" encoding="UTF-8"?>
<gpx creator="Garmin Connect" version="1.1"
  xsi:schemaLocation="http://www.topografix.com/GPX/1/1 http://www.topografix.com/GPX/11.xsd"
  xmlns:ns3="http://www.garmin.com/xmlschemas/TrackPointExtension/v1"
  xmlns="http://www.topografix.com/GPX/1/1"
  xmlns:xsi="http://www.w3.org/2001/XMLSchema-instance" xmlns:ns2="http://www.garmin.com/xmlschemas/GpxExtensions/v3">
  <metadata>
    <name>PW Peenemünde</name>
    <link href="connect.garmin.com">
      <text>Garmin Connect</text>
    </link>
    <time>2023-12-29T09:57:02.000Z</time>
  </metadata>
  <trk>
    <name>PW Peenemünde</name>
    <trkseg>
      <trkpt lat="54.11740377545357" lon="13.83091983385384">
        <ele>7.66</ele>
        <time>2023-12-29T09:57:02.000Z</time>
      </trkpt>
      <trkpt lat="54.117415426298976" lon="13.830910110846162">
        <ele>7.55</ele>
        <time>2023-12-29T09:57:02.000Z</time>
      </trkpt>
      <trkpt lat="54.117448115721345" lon="13.830845654010773">
        <ele>7.43</ele>
        <time>2023-12-29T09:57:02.002Z</time>
      </trkpt>
      <trkpt lat="54.117506789043546" lon="13.830711711198092">
        <ele>7.27</ele>
        <time>2023-12-29T09:57:02.007Z</time>
      </trkpt>
      <trkpt lat="54.11750494502485" lon="13.830676674842834">
        <ele>7.11</ele>
        <time>2023-12-29T09:57:02.013Z</time>
      </trkpt>
      <trkpt lat="54.117484828457236" lon="13.830529320985079">
        <ele>6.81</ele>
        <time>2023-12-29T09:57:02.022Z</time>
      </trkpt>
      <trkpt lat="54.11745859310031" lon="13.830384481698275">
        <ele>6.51</ele>
        <time>2023-12-29T09:57:02.034Z</time>
      </trkpt>
      <trkpt lat="54.11745289340615" lon="13.830294962972403">
        <ele>6.34</ele>
        <time>2023-12-29T09:57:02.048Z</time>
      </trkpt>
      <trkpt lat="54.11746881902218" lon="13.83027819916606">
        <ele>6.23</ele>
        <time>2023-12-29T09:57:02.062Z</time>
      </trkpt>
      <trkpt lat="54.11749622784555" lon="13.830184992402792">
        <ele>6.17</ele>
        <time>2023-12-29T09:57:02.078Z</time>
      </trkpt>
      <trkpt lat="54.11748943850398" lon="13.829961447045207">
        <ele>6.05</ele>
        <time>2023-12-29T09:57:02.099Z</time>
      </trkpt>
      <trkpt lat="54.117431519553065" lon="13.829625165089965">
        <ele>6.11</ele>
        <time>2023-12-29T09:57:02.127Z</time>
      </trkpt>
      <trkpt lat="54.11739279516041" lon="13.82934789173305">
        <ele>6.29</ele>
        <time>2023-12-29T09:57:02.160Z</time>
      </trkpt>
      <trkpt lat="54.11736723035574" lon="13.829149827361107">
        <ele>6.46</ele>
        <time>2023-12-29T09:57:02.197Z</time>
      </trkpt>
      <trkpt lat="54.117361111566424" lon="13.829156197607517">
        <ele>6.56</ele>
        <time>2023-12-29T09:57:02.235Z</time>
      </trkpt>
      <trkpt lat="54.117362620308995" lon="13.829153096303344">
        <ele>6.65</ele>
        <time>2023-12-29T09:57:02.273Z</time>
      </trkpt>
      <trkpt lat="54.1173605248332" lon="13.829157706350088">
        <ele>6.72</ele>
        <time>2023-12-29T09:57:02.311Z</time>
      </trkpt>
      <trkpt lat="54.11734962835908" lon="13.829075396060944">
        <ele>6.79</ele>
        <time>2023-12-29T09:57:02.350Z</time>
      </trkpt>
      <trkpt lat="54.117337223142385" lon="13.82881773635745">
        <ele>6.91</ele>
        <time>2023-12-29T09:57:02.394Z</time>
      </trkpt>
      <trkpt lat="54.117321548983455" lon="13.828609194606543">
        <ele>6.97</ele>
        <time>2023-12-29T09:57:02.443Z</time>
      </trkpt>
      <trkpt lat="54.11729875020683" lon="13.828304763883352">
        <ele>6.9</ele>
        <time>2023-12-29T09:57:02.498Z</time>
      </trkpt>
      <trkpt lat="54.11726555787027" lon="13.827964793890715">
        <ele>6.81</ele>
        <time>2023-12-29T09:57:02.559Z</time>
      </trkpt>
      <trkpt lat="54.11724275909364" lon="13.827789695933461">
        <ele>6.7</ele>
        <time>2023-12-29T09:57:02.624Z</time>
      </trkpt>
      <trkpt lat="54.11723244935274" lon="13.827706128358841">
        <ele>6.63</ele>
        <time>2023-12-29T09:57:02.691Z</time>
      </trkpt>
      <trkpt lat="54.11716589704156" lon="13.82738652639091">
        <ele>6.54</ele>
        <time>2023-12-29T09:57:02.764Z</time>
      </trkpt>
      <trkpt lat="54.117083167657256" lon="13.827097015455365">
        <ele>6.55</ele>
        <time>2023-12-29T09:57:02.844Z</time>
      </trkpt>
      <trkpt lat="54.11699230782688" lon="13.826815634965897">
        <ele>6.67</ele>
        <time>2023-12-29T09:57:02.930Z</time>
      </trkpt>
      <trkpt lat="54.11688040941954" lon="13.826543726027012">
        <ele>6.87</ele>
        <time>2023-12-29T09:57:03.022Z</time>
      </trkpt>
      <trkpt lat="54.116759710013866" lon="13.826300734654069">
        <ele>7.09</ele>
        <time>2023-12-29T09:57:03.121Z</time>
      </trkpt>
      <trkpt lat="54.116629706695676" lon="13.8260867446661">
        <ele>7.29</ele>
        <time>2023-12-29T09:57:03.226Z</time>
      </trkpt>
      <trkpt lat="54.116526022553444" lon="13.825945509597659">
        <ele>7.45</ele>
        <time>2023-12-29T09:57:03.335Z</time>
      </trkpt>
      <trkpt lat="54.11637875251472" lon="13.825742835178971">
        <ele>7.64</ele>
        <time>2023-12-29T09:57:03.450Z</time>
      </trkpt>
      <trkpt lat="54.11623181775212" lon="13.825549380853772">
        <ele>7.84</ele>
        <time>2023-12-29T09:57:03.572Z</time>
      </trkpt>
      <trkpt lat="54.1161950211972" lon="13.825501101091504">
        <ele>8.02</ele>
        <time>2023-12-29T09:57:03.695Z</time>
      </trkpt>
      <trkpt lat="54.116046493873" lon="13.825313095003366">
        <ele>8.22</ele>
        <time>2023-12-29T09:57:03.824Z</time>
      </trkpt>
      <trkpt lat="54.115882040932775" lon="13.82508217357099">
        <ele>8.44</ele>
        <time>2023-12-29T09:57:03.960Z</time>
      </trkpt>
      <trkpt lat="54.11585111171007" lon="13.825031882151961">
        <ele>8.59</ele>
        <time>2023-12-29T09:57:04.098Z</time>
      </trkpt>
      <trkpt lat="54.11577198654413" lon="13.824901292100549">
        <ele>8.72</ele>
        <time>2023-12-29T09:57:04.240Z</time>
      </trkpt>
      <trkpt lat="54.115750109776855" lon="13.824856281280518">
        <ele>8.86</ele>
        <time>2023-12-29T09:57:04.383Z</time>
      </trkpt>
      <trkpt lat="54.115709541365504" lon="13.824764164164662">
        <ele>8.97</ele>
        <time>2023-12-29T09:57:04.528Z</time>
      </trkpt>
      <trkpt lat="54.11558632738888" lon="13.824473395943642">
        <ele>9.05</ele>
        <time>2023-12-29T09:57:04.680Z</time>
      </trkpt>
      <trkpt lat="54.115481888875365" lon="13.824195116758347">
        <ele>9.17</ele>
        <time>2023-12-29T09:57:04.838Z</time>
      </trkpt>
      <trkpt lat="54.115446181967854" lon="13.824075926095247">
        <ele>9.29</ele>
        <time>2023-12-29T09:57:04.999Z</time>
      </trkpt>
      <trkpt lat="54.11539806984365" lon="13.82391574792564">
        <ele>9.43</ele>
        <time>2023-12-29T09:57:05.164Z</time>
      </trkpt>
      <trkpt lat="54.115327410399914" lon="13.823625650256872">
        <ele>9.56</ele>
        <time>2023-12-29T09:57:05.335Z</time>
      </trkpt>
      <trkpt lat="54.115313244983554" lon="13.823564294725657">
        <ele>9.67</ele>
        <time>2023-12-29T09:57:05.507Z</time>
      </trkpt>
      <trkpt lat="54.11524283699691" lon="13.823231616988778">
        <ele>9.82</ele>
        <time>2023-12-29T09:57:05.686Z</time>
      </trkpt>
      <trkpt lat="54.11521777510643" lon="13.823125082999468">
        <ele>9.94</ele>
        <time>2023-12-29T09:57:05.867Z</time>
      </trkpt>
      <trkpt lat="54.115154072642326" lon="13.822816796600819">
        <ele>9.99</ele>
        <time>2023-12-29T09:57:06.055Z</time>
      </trkpt>
      <trkpt lat="54.11513320170343" lon="13.82271084934473">
        <ele>10.09</ele>
        <time>2023-12-29T09:57:06.245Z</time>
      </trkpt>
      <trkpt lat="54.11506522446871" lon="13.822406250983477">
        <ele>10.18</ele>
        <time>2023-12-29T09:57:06.441Z</time>
      </trkpt>
      <trkpt lat="54.11499397829175" lon="13.822081200778484">
        <ele>10.26</ele>
        <time>2023-12-29T09:57:06.644Z</time>
      </trkpt>
      <trkpt lat="54.11491627804935" lon="13.82175606675446">
        <ele>10.3</ele>
        <time>2023-12-29T09:57:06.854Z</time>
      </trkpt>
      <trkpt lat="54.114905297756195" lon="13.82171013392508">
        <ele>10.31</ele>
        <time>2023-12-29T09:57:07.065Z</time>
      </trkpt>
      <trkpt lat="54.11480924114585" lon="13.821386592462659">
        <ele>10.31</ele>
        <time>2023-12-29T09:57:07.283Z</time>
      </trkpt>
      <trkpt lat="54.11470136605203" lon="13.82107344456017">
        <ele>10.28</ele>
        <time>2023-12-29T09:57:07.508Z</time>
      </trkpt>
      <trkpt lat="54.11462550982833" lon="13.820891557261348">
        <ele>10.2</ele>
        <time>2023-12-29T09:57:07.738Z</time>
      </trkpt>
      <trkpt lat="54.11449852399528" lon="13.820603555068374">
        <ele>10.05</ele>
        <time>2023-12-29T09:57:07.975Z</time>
      </trkpt>
      <trkpt lat="54.11444948986173" lon="13.820507330819964">
        <ele>9.83</ele>
        <time>2023-12-29T09:57:08.214Z</time>
      </trkpt>
      <trkpt lat="54.11432946100831" lon="13.820266602560878">
        <ele>9.55</ele>
        <time>2023-12-29T09:57:08.459Z</time>
      </trkpt>
      <trkpt lat="54.11420331336558" lon="13.820012547075748">
        <ele>9.21</ele>
        <time>2023-12-29T09:57:08.711Z</time>
      </trkpt>
      <trkpt lat="54.114154279232025" lon="13.81991003639996">
        <ele>8.8</ele>
        <time>2023-12-29T09:57:08.965Z</time>
      </trkpt>
      <trkpt lat="54.11403425037861" lon="13.81967207416892">
        <ele>8.29</ele>
        <time>2023-12-29T09:57:09.226Z</time>
      </trkpt>
      <trkpt lat="54.11391329951584" lon="13.819437883794308">
        <ele>7.67</ele>
        <time>2023-12-29T09:57:09.493Z</time>
      </trkpt>
      <trkpt lat="54.113888908177614" lon="13.81938667036593">
        <ele>7.1</ele>
        <time>2023-12-29T09:57:09.761Z</time>
      </trkpt>
      <trkpt lat="54.1137548815459" lon="13.81913990713656">
        <ele>6.4</ele>
        <time>2023-12-29T09:57:10.036Z</time>
      </trkpt>
      <trkpt lat="54.11362227983773" lon="13.81890437565744">
        <ele>5.69</ele>
        <time>2023-12-29T09:57:10.317Z</time>
      </trkpt>
      <trkpt lat="54.11358816549182" lon="13.818847630172968">
        <ele>5.07</ele>
        <time>2023-12-29T09:57:10.600Z</time>
      </trkpt>
      <trkpt lat="54.11344273947179" lon="13.81861754693091">
        <ele>4.39</ele>
        <time>2023-12-29T09:57:10.889Z</time>
      </trkpt>
      <trkpt lat="54.1132852435112" lon="13.818404730409384">
        <ele>3.84</ele>
        <time>2023-12-29T09:57:11.185Z</time>
      </trkpt>
      <trkpt lat="54.113228833302855" lon="13.818321414291859">
        <ele>3.37</ele>
        <time>2023-12-29T09:57:11.483Z</time>
      </trkpt>
      <trkpt lat="54.11316814832389" lon="13.818239104002714">
        <ele>2.99</ele>
        <time>2023-12-29T09:57:11.784Z</time>
      </trkpt>
      <trkpt lat="54.11300998181105" lon="13.818035507574677">
        <ele>2.7</ele>
        <time>2023-12-29T09:57:12.092Z</time>
      </trkpt>
      <trkpt lat="54.11286271177232" lon="13.817834174260497">
        <ele>2.45</ele>
        <time>2023-12-29T09:57:12.406Z</time>
      </trkpt>
      <trkpt lat="54.11271099932492" lon="13.817631835117936">
        <ele>2.23</ele>
        <time>2023-12-29T09:57:12.726Z</time>
      </trkpt>
      <trkpt lat="54.11265442147851" lon="13.817555475980043">
        <ele>2.07</ele>
        <time>2023-12-29T09:57:13.049Z</time>
      </trkpt>
      <trkpt lat="54.11259331740439" lon="13.817478530108929">
        <ele>1.94</ele>
        <time>2023-12-29T09:57:13.374Z</time>
      </trkpt>
      <trkpt lat="54.11244713701308" lon="13.817284237593412">
        <ele>1.85</ele>
        <time>2023-12-29T09:57:13.705Z</time>
      </trkpt>
      <trkpt lat="54.112305734306574" lon="13.817090699449182">
        <ele>1.82</ele>
        <time>2023-12-29T09:57:14.043Z</time>
      </trkpt>
      <trkpt lat="54.112275475636125" lon="13.817045437172055">
        <ele>1.86</ele>
        <time>2023-12-29T09:57:14.382Z</time>
      </trkpt>
      <trkpt lat="54.11211940459907" lon="13.816793644800782">
        <ele>1.94</ele>
        <time>2023-12-29T09:57:14.728Z</time>
      </trkpt>
      <trkpt lat="54.11200306378305" lon="13.816577307879925">
        <ele>2.08</ele>
        <time>2023-12-29T09:57:15.080Z</time>
      </trkpt>
      <trkpt lat="54.111870881170034" lon="13.816305315122008">
        <ele>2.22</ele>
        <time>2023-12-29T09:57:15.439Z</time>
      </trkpt>
      <trkpt lat="54.11175101995468" lon="13.816069532185793">
        <ele>2.37</ele>
        <time>2023-12-29T09:57:15.804Z</time>
      </trkpt>
      <trkpt lat="54.111629985272884" lon="13.81582654081285">
        <ele>2.55</ele>
        <time>2023-12-29T09:57:16.175Z</time>
      </trkpt>
      <trkpt lat="54.11150610074401" lon="13.815595703199506">
        <ele>2.77</ele>
        <time>2023-12-29T09:57:16.552Z</time>
      </trkpt>
      <trkpt lat="54.111389592289925" lon="13.8153594173491">
        <ele>3.05</ele>
        <time>2023-12-29T09:57:16.935Z</time>
      </trkpt>
      <trkpt lat="54.11127023398876" lon="13.815131345763803">
        <ele>3.25</ele>
        <time>2023-12-29T09:57:17.324Z</time>
      </trkpt>
      <trkpt lat="54.11122430115938" lon="13.815043922513723">
        <ele>3.4</ele>
        <time>2023-12-29T09:57:17.716Z</time>
      </trkpt>
      <trkpt lat="54.11109781824052" lon="13.814799757674336">
        <ele>3.51</ele>
        <time>2023-12-29T09:57:18.114Z</time>
      </trkpt>
      <trkpt lat="54.11107233725488" lon="13.814657684415579">
        <ele>3.59</ele>
        <time>2023-12-29T09:57:18.515Z</time>
      </trkpt>
      <trkpt lat="54.11108063533902" lon="13.814609907567501">
        <ele>3.62</ele>
        <time>2023-12-29T09:57:18.917Z</time>
      </trkpt>
      <trkpt lat="54.11115883849561" lon="13.814446208998561">
        <ele>3.66</ele>
        <time>2023-12-29T09:57:19.323Z</time>
      </trkpt>
      <trkpt lat="54.11117794923484" lon="13.814416704699397">
        <ele>3.6</ele>
        <time>2023-12-29T09:57:19.730Z</time>
      </trkpt>
      <trkpt lat="54.111289009451866" lon="13.81426096893847">
        <ele>3.53</ele>
        <time>2023-12-29T09:57:20.142Z</time>
      </trkpt>
      <trkpt lat="54.11133846268058" lon="13.814196344465017">
        <ele>3.35</ele>
        <time>2023-12-29T09:57:20.556Z</time>
      </trkpt>
      <trkpt lat="54.11141767166555" lon="13.814094588160515">
        <ele>3.11</ele>
        <time>2023-12-29T09:57:20.973Z</time>
      </trkpt>
      <trkpt lat="54.11149092949927" lon="13.813916640356183">
        <ele>2.88</ele>
        <time>2023-12-29T09:57:21.394Z</time>
      </trkpt>
      <trkpt lat="54.11150366999209" lon="13.813631907105446">
        <ele>2.5</ele>
        <time>2023-12-29T09:57:21.821Z</time>
      </trkpt>
      <trkpt lat="54.11148170940578" lon="13.81342839449644">
        <ele>2.21</ele>
        <time>2023-12-29T09:57:22.252Z</time>
      </trkpt>
      <trkpt lat="54.11143485456705" lon="13.813200322911143">
        <ele>1.93</ele>
        <time>2023-12-29T09:57:22.688Z</time>
      </trkpt>
      <trkpt lat="54.11140761338174" lon="13.813062524423003">
        <ele>1.73</ele>
        <time>2023-12-29T09:57:23.127Z</time>
      </trkpt>
      <trkpt lat="54.11140878684819" lon="13.81280042231083">
        <ele>1.57</ele>
        <time>2023-12-29T09:57:23.571Z</time>
      </trkpt>
      <trkpt lat="54.11144415847957" lon="13.812495991587639">
        <ele>1.37</ele>
        <time>2023-12-29T09:57:24.021Z</time>
      </trkpt>
      <trkpt lat="54.11145631223917" lon="13.812374956905842">
        <ele>1.25</ele>
        <time>2023-12-29T09:57:24.473Z</time>
      </trkpt>
      <trkpt lat="54.1114944498986" lon="13.812041524797678">
        <ele>1.16</ele>
        <time>2023-12-29T09:57:24.932Z</time>
      </trkpt>
      <trkpt lat="54.111518673598766" lon="13.811816554516554">
        <ele>1.12</ele>
        <time>2023-12-29T09:57:25.395Z</time>
      </trkpt>
      <trkpt lat="54.11154289729893" lon="13.811516230925918">
        <ele>1.12</ele>
        <time>2023-12-29T09:57:25.864Z</time>
      </trkpt>
      <trkpt lat="54.11158220842481" lon="13.811213476583362">
        <ele>1.16</ele>
        <time>2023-12-29T09:57:26.339Z</time>
      </trkpt>
      <trkpt lat="54.11161414347589" lon="13.811017507687211">
        <ele>1.25</ele>
        <time>2023-12-29T09:57:26.818Z</time>
      </trkpt>
      <trkpt lat="54.11169335246086" lon="13.810703689232469">
        <ele>1.37</ele>
        <time>2023-12-29T09:57:27.304Z</time>
      </trkpt>
      <trkpt lat="54.111726209521294" lon="13.810515012592077">
        <ele>1.53</ele>
        <time>2023-12-29T09:57:27.794Z</time>
      </trkpt>
      <trkpt lat="54.11175378598273" lon="13.810205468907952">
        <ele>1.73</ele>
        <time>2023-12-29T09:57:28.290Z</time>
      </trkpt>
      <trkpt lat="54.111776165664196" lon="13.810096252709627">
        <ele>1.88</ele>
        <time>2023-12-29T09:57:28.788Z</time>
      </trkpt>
      <trkpt lat="54.11185369826853" lon="13.809784948825836">
        <ele>2.09</ele>
        <time>2023-12-29T09:57:29.293Z</time>
      </trkpt>
      <trkpt lat="54.11185830831528" lon="13.8097436260432">
        <ele>2.14</ele>
        <time>2023-12-29T09:57:29.799Z</time>
      </trkpt>
      <trkpt lat="54.11190927028656" lon="13.809418575838208">
        <ele>2.17</ele>
        <time>2023-12-29T09:57:30.311Z</time>
      </trkpt>
      <trkpt lat="54.11194380372763" lon="13.80911372601986">
        <ele>2.15</ele>
        <time>2023-12-29T09:57:30.830Z</time>
      </trkpt>
      <trkpt lat="54.11197506822646" lon="13.808953380212188">
        <ele>2.02</ele>
        <time>2023-12-29T09:57:31.352Z</time>
      </trkpt>
      <trkpt lat="54.112040447071195" lon="13.808624306693673">
        <ele>1.84</ele>
        <time>2023-12-29T09:57:31.881Z</time>
      </trkpt>
      <trkpt lat="54.112075148150325" lon="13.808459602296352">
        <ele>1.61</ele>
        <time>2023-12-29T09:57:32.413Z</time>
      </trkpt>
      <trkpt lat="54.11211932078004" lon="13.808179814368486">
        <ele>1.36</ele>
        <time>2023-12-29T09:57:32.951Z</time>
      </trkpt>
      <trkpt lat="54.11218436434865" lon="13.807855434715748">
        <ele>1.01</ele>
        <time>2023-12-29T09:57:33.495Z</time>
      </trkpt>
      <trkpt lat="54.11221311427653" lon="13.807693161070347">
        <ele>0.84</ele>
        <time>2023-12-29T09:57:34.043Z</time>
      </trkpt>
      <trkpt lat="54.112271117046475" lon="13.807363668456674">
        <ele>0.64</ele>
        <time>2023-12-29T09:57:34.598Z</time>
      </trkpt>
      <trkpt lat="54.11231646314263" lon="13.807123778387904">
        <ele>0.53</ele>
        <time>2023-12-29T09:57:35.158Z</time>
      </trkpt>
      <trkpt lat="54.112375723198056" lon="13.806803924962878">
        <ele>0.51</ele>
        <time>2023-12-29T09:57:35.724Z</time>
      </trkpt>
      <trkpt lat="54.11239441484213" lon="13.806710802018642">
        <ele>0.46</ele>
        <time>2023-12-29T09:57:36.292Z</time>
      </trkpt>
      <trkpt lat="54.11244395188987" lon="13.806384578347206">
        <ele>0.45</ele>
        <time>2023-12-29T09:57:36.867Z</time>
      </trkpt>
      <trkpt lat="54.11245124414563" lon="13.806342920288444">
        <ele>0.39</ele>
        <time>2023-12-29T09:57:37.442Z</time>
      </trkpt>
      <trkpt lat="54.112503128126264" lon="13.806045446544886">
        <ele>0.35</ele>
        <time>2023-12-29T09:57:38.024Z</time>
      </trkpt>
      <trkpt lat="54.11252165213227" lon="13.805950060486794">
        <ele>0.31</ele>
        <time>2023-12-29T09:57:38.608Z</time>
      </trkpt>
      <trkpt lat="54.11258988082409" lon="13.805632637813687">
        <ele>0.3</ele>
        <time>2023-12-29T09:57:39.198Z</time>
      </trkpt>
      <trkpt lat="54.112597927451134" lon="13.805582849308848">
        <ele>0.31</ele>
        <time>2023-12-29T09:57:39.789Z</time>
      </trkpt>
      <trkpt lat="54.112656097859144" lon="13.805289650335908">
        <ele>0.31</ele>
        <time>2023-12-29T09:57:40.386Z</time>
      </trkpt>
      <trkpt lat="54.112673783674836" lon="13.805195102468133">
        <ele>0.31</ele>
        <time>2023-12-29T09:57:40.985Z</time>
      </trkpt>
      <trkpt lat="54.11268283613026" lon="13.805137351155281">
        <ele>0.31</ele>
        <time>2023-12-29T09:57:41.585Z</time>
      </trkpt>
      <trkpt lat="54.11274343729019" lon="13.804815905168653">
        <ele>0.28</ele>
        <time>2023-12-29T09:57:42.192Z</time>
      </trkpt>
      <trkpt lat="54.11277604289353" lon="13.804643154144287">
        <ele>0.27</ele>
        <time>2023-12-29T09:57:42.803Z</time>
      </trkpt>
      <trkpt lat="54.112838823348284" lon="13.804293880239129">
        <ele>0.25</ele>
        <time>2023-12-29T09:57:43.421Z</time>
      </trkpt>
      <trkpt lat="54.11288894712925" lon="13.804028257727623">
        <ele>0.3</ele>
        <time>2023-12-29T09:57:44.044Z</time>
      </trkpt>
      <trkpt lat="54.11295440979302" lon="13.803697088733315">
        <ele>0.42</ele>
        <time>2023-12-29T09:57:44.674Z</time>
      </trkpt>
      <trkpt lat="54.11299388855696" lon="13.80347304046154">
        <ele>0.45</ele>
        <time>2023-12-29T09:57:45.309Z</time>
      </trkpt>
      <trkpt lat="54.11305457353592" lon="13.80315293557942">
        <ele>0.51</ele>
        <time>2023-12-29T09:57:45.950Z</time>
      </trkpt>
      <trkpt lat="54.113107128068805" lon="13.802875243127346">
        <ele>0.53</ele>
        <time>2023-12-29T09:57:46.597Z</time>
      </trkpt>
      <trkpt lat="54.113168735057116" lon="13.802533010020852">
        <ele>0.55</ele>
        <time>2023-12-29T09:57:47.251Z</time>
      </trkpt>
      <trkpt lat="54.11320955492556" lon="13.802307033911347">
        <ele>0.63</ele>
        <time>2023-12-29T09:57:47.910Z</time>
      </trkpt>
      <trkpt lat="54.11327267065644" lon="13.801980558782816">
        <ele>0.72</ele>
        <time>2023-12-29T09:57:48.575Z</time>
      </trkpt>
      <trkpt lat="54.113317262381315" lon="13.80175550468266">
        <ele>0.82</ele>
        <time>2023-12-29T09:57:49.245Z</time>
      </trkpt>
      <trkpt lat="54.113370487466455" lon="13.801408996805549">
        <ele>0.93</ele>
        <time>2023-12-29T09:57:49.922Z</time>
      </trkpt>
      <trkpt lat="54.11339261569083" lon="13.801302798092365">
        <ele>1.03</ele>
        <time>2023-12-29T09:57:50.601Z</time>
      </trkpt>
      <trkpt lat="54.11348263733089" lon="13.800988560542464">
        <ele>1.15</ele>
        <time>2023-12-29T09:57:51.287Z</time>
      </trkpt>
      <trkpt lat="54.11348858848214" lon="13.8009365927428">
        <ele>1.23</ele>
        <time>2023-12-29T09:57:51.974Z</time>
      </trkpt>
      <trkpt lat="54.11352169699967" lon="13.80061456002295">
        <ele>1.39</ele>
        <time>2023-12-29T09:57:52.668Z</time>
      </trkpt>
      <trkpt lat="54.113530330359936" lon="13.800565777346492">
        <ele>1.44</ele>
        <time>2023-12-29T09:57:53.363Z</time>
      </trkpt>
      <trkpt lat="54.11358908750117" lon="13.800242152065039">
        <ele>1.48</ele>
        <time>2023-12-29T09:57:54.064Z</time>
      </trkpt>
      <trkpt lat="54.11364348605275" lon="13.800036208704114">
        <ele>1.5</ele>
        <time>2023-12-29T09:57:54.770Z</time>
      </trkpt>
      <trkpt lat="54.11368447355926" lon="13.799853567034006">
        <ele>1.49</ele>
        <time>2023-12-29T09:57:55.480Z</time>
      </trkpt>
      <trkpt lat="54.113720348104835" lon="13.7996207177639">
        <ele>1.45</ele>
        <time>2023-12-29T09:57:56.194Z</time>
      </trkpt>
      <trkpt lat="54.11376602947712" lon="13.799356436356902">
        <ele>1.42</ele>
        <time>2023-12-29T09:57:56.914Z</time>
      </trkpt>
      <trkpt lat="54.113823445513844" lon="13.799020489677787">
        <ele>1.3</ele>
        <time>2023-12-29T09:57:57.640Z</time>
      </trkpt>
      <trkpt lat="54.11387013271451" lon="13.798724273219705">
        <ele>1.24</ele>
        <time>2023-12-29T09:57:58.373Z</time>
      </trkpt>
      <trkpt lat="54.11393358372152" lon="13.798409029841423">
        <ele>1.17</ele>
        <time>2023-12-29T09:57:59.112Z</time>
      </trkpt>
      <trkpt lat="54.11395034752786" lon="13.798301154747605">
        <ele>1.09</ele>
        <time>2023-12-29T09:57:59.853Z</time>
      </trkpt>
      <trkpt lat="54.11401245743036" lon="13.79800284281373">
        <ele>0.96</ele>
        <time>2023-12-29T09:58:00.600Z</time>
      </trkpt>
      <trkpt lat="54.114020839333534" lon="13.79795397631824">
        <ele>0.87</ele>
        <time>2023-12-29T09:58:01.348Z</time>
      </trkpt>
      <trkpt lat="54.11408110521734" lon="13.79762414842844">
        <ele>0.73</ele>
        <time>2023-12-29T09:58:02.103Z</time>
      </trkpt>
      <trkpt lat="54.11411538720131" lon="13.797425162047148">
        <ele>0.66</ele>
        <time>2023-12-29T09:58:02.862Z</time>
      </trkpt>
      <trkpt lat="54.11418093368411" lon="13.797120731323957">
        <ele>0.62</ele>
        <time>2023-12-29T09:58:03.628Z</time>
      </trkpt>
      <trkpt lat="54.11420834250748" lon="13.796914871782064">
        <ele>0.57</ele>
        <time>2023-12-29T09:58:04.398Z</time>
      </trkpt>
      <trkpt lat="54.114312613382936" lon="13.796645645052195">
        <ele>0.63</ele>
        <time>2023-12-29T09:58:05.174Z</time>
      </trkpt>
      <trkpt lat="54.114442281425" lon="13.796410029754043">
        <ele>0.69</ele>
        <time>2023-12-29T09:58:05.956Z</time>
      </trkpt>
      <trkpt lat="54.11446675658226" lon="13.796372395008802">
        <ele>0.75</ele>
        <time>2023-12-29T09:58:06.740Z</time>
      </trkpt>
      <trkpt lat="54.114489974454045" lon="13.796336185187101">
        <ele>0.83</ele>
        <time>2023-12-29T09:58:07.525Z</time>
      </trkpt>
      <trkpt lat="54.11464084871113" lon="13.796107694506645">
        <ele>0.96</ele>
        <time>2023-12-29T09:58:08.316Z</time>
      </trkpt>
      <trkpt lat="54.11479708738625" lon="13.79588515497744">
        <ele>1.15</ele>
        <time>2023-12-29T09:58:09.114Z</time>
      </trkpt>
      <trkpt lat="54.11493354476988" lon="13.795660687610507">
        <ele>1.3</ele>
        <time>2023-12-29T09:58:09.918Z</time>
      </trkpt>
      <trkpt lat="54.115067487582564" lon="13.795435633510351">
        <ele>1.34</ele>
        <time>2023-12-29T09:58:10.729Z</time>
      </trkpt>
      <trkpt lat="54.11520562134683" lon="13.795189540833235">
        <ele>1.35</ele>
        <time>2023-12-29T09:58:11.546Z</time>
      </trkpt>
      <trkpt lat="54.11535523831844" lon="13.79496255889535">
        <ele>1.35</ele>
        <time>2023-12-29T09:58:12.370Z</time>
      </trkpt>
      <trkpt lat="54.115434028208256" lon="13.794837668538094">
        <ele>1.43</ele>
        <time>2023-12-29T09:58:13.198Z</time>
      </trkpt>
      <trkpt lat="54.11558733321726" lon="13.794596018269658">
        <ele>1.54</ele>
        <time>2023-12-29T09:58:14.033Z</time>
      </trkpt>
      <trkpt lat="54.11566352471709" lon="13.794480012729764">
        <ele>1.68</ele>
        <time>2023-12-29T09:58:14.871Z</time>
      </trkpt>
      <trkpt lat="54.11579671315849" lon="13.794270800426602">
        <ele>1.84</ele>
        <time>2023-12-29T09:58:15.715Z</time>
      </trkpt>
      <trkpt lat="54.11586276255548" lon="13.794151777401567">
        <ele>1.91</ele>
        <time>2023-12-29T09:58:16.562Z</time>
      </trkpt>
      <trkpt lat="54.11598262377083" lon="13.793967626988888">
        <ele>2.03</ele>
        <time>2023-12-29T09:58:17.415Z</time>
      </trkpt>
      <trkpt lat="54.1161500941962" lon="13.79379864782095">
        <ele>2.02</ele>
        <time>2023-12-29T09:58:18.274Z</time>
      </trkpt>
      <trkpt lat="54.11628353409469" lon="13.793553560972214">
        <ele>2.01</ele>
        <time>2023-12-29T09:58:19.140Z</time>
      </trkpt>
      <trkpt lat="54.11638797260821" lon="13.793334290385246">
        <ele>1.96</ele>
        <time>2023-12-29T09:58:20.011Z</time>
      </trkpt>
      <trkpt lat="54.11649358458817" lon="13.79316690377891">
        <ele>1.88</ele>
        <time>2023-12-29T09:58:20.887Z</time>
      </trkpt>
      <trkpt lat="54.11664110608399" lon="13.792932461947203">
        <ele>1.78</ele>
        <time>2023-12-29T09:58:21.770Z</time>
      </trkpt>
      <trkpt lat="54.11671092733741" lon="13.792822826653719">
        <ele>1.67</ele>
        <time>2023-12-29T09:58:22.656Z</time>
      </trkpt>
      <trkpt lat="54.11678343079984" lon="13.792706737294793">
        <ele>1.54</ele>
        <time>2023-12-29T09:58:23.545Z</time>
      </trkpt>
      <trkpt lat="54.116925755515695" lon="13.792477240785956">
        <ele>1.34</ele>
        <time>2023-12-29T09:58:24.441Z</time>
      </trkpt>
      <trkpt lat="54.11699783988297" lon="13.792358050122857">
        <ele>1.12</ele>
        <time>2023-12-29T09:58:25.340Z</time>
      </trkpt>
      <trkpt lat="54.11714921705425" lon="13.792116232216358">
        <ele>0.91</ele>
        <time>2023-12-29T09:58:26.246Z</time>
      </trkpt>
      <trkpt lat="54.11719867028296" lon="13.79203618504107">
        <ele>0.75</ele>
        <time>2023-12-29T09:58:27.155Z</time>
      </trkpt>
      <trkpt lat="54.11735516041517" lon="13.791789086535573">
        <ele>0.59</ele>
        <time>2023-12-29T09:58:28.071Z</time>
      </trkpt>
      <trkpt lat="54.117380222305655" lon="13.791750026866794">
        <ele>0.45</ele>
        <time>2023-12-29T09:58:28.988Z</time>
      </trkpt>
      <trkpt lat="54.117530761286616" lon="13.791512819007039">
        <ele>0.31</ele>
        <time>2023-12-29T09:58:29.912Z</time>
      </trkpt>
      <trkpt lat="54.11760812625289" lon="13.791388515383005">
        <ele>0.2</ele>
        <time>2023-12-29T09:58:30.839Z</time>
      </trkpt>
      <trkpt lat="54.11776294000447" lon="13.791140243411064">
        <ele>0.12</ele>
        <time>2023-12-29T09:58:31.773Z</time>
      </trkpt>
      <trkpt lat="54.11789051257074" lon="13.79094603471458">
        <ele>-0.02</ele>
        <time>2023-12-29T09:58:32.713Z</time>
      </trkpt>
      <trkpt lat="54.11804297938943" lon="13.790723327547312">
        <ele>-0.11</ele>
        <time>2023-12-29T09:58:33.660Z</time>
      </trkpt>
      <trkpt lat="54.11812327802181" lon="13.790602376684546">
        <ele>-0.19</ele>
        <time>2023-12-29T09:58:34.610Z</time>
      </trkpt>
      <trkpt lat="54.118273397907615" lon="13.790355864912271">
        <ele>-0.3</ele>
        <time>2023-12-29T09:58:35.567Z</time>
      </trkpt>
      <trkpt lat="54.11840658634901" lon="13.790138019248843">
        <ele>-0.33</ele>
        <time>2023-12-29T09:58:36.530Z</time>
      </trkpt>
      <trkpt lat="54.11854094825685" lon="13.789922017604113">
        <ele>-0.41</ele>
        <time>2023-12-29T09:58:37.500Z</time>
      </trkpt>
      <trkpt lat="54.11867237649858" lon="13.789712889119983">
        <ele>-0.49</ele>
        <time>2023-12-29T09:58:38.476Z</time>
      </trkpt>
      <trkpt lat="54.11870255135" lon="13.789665782824159">
        <ele>-0.49</ele>
        <time>2023-12-29T09:58:39.453Z</time>
      </trkpt>
      <trkpt lat="54.118859712034464" lon="13.789416085928679">
        <ele>-0.45</ele>
        <time>2023-12-29T09:58:40.437Z</time>
      </trkpt>
      <trkpt lat="54.118966832756996" lon="13.789249453693628">
        <ele>-0.42</ele>
        <time>2023-12-29T09:58:41.426Z</time>
      </trkpt>
      <trkpt lat="54.119125418365" lon="13.78900327719748">
        <ele>-0.38</ele>
        <time>2023-12-29T09:58:42.422Z</time>
      </trkpt>
      <trkpt lat="54.11920798011124" lon="13.788888528943062">
        <ele>-0.37</ele>
        <time>2023-12-29T09:58:43.422Z</time>
      </trkpt>
      <trkpt lat="54.11935256794095" lon="13.78864805214107">
        <ele>-0.29</ele>
        <time>2023-12-29T09:58:44.428Z</time>
      </trkpt>
      <trkpt lat="54.11942884325981" lon="13.788529615849257">
        <ele>-0.16</ele>
        <time>2023-12-29T09:58:45.438Z</time>
      </trkpt>
      <trkpt lat="54.119579466059804" lon="13.788296515122056">
        <ele>0.0</ele>
        <time>2023-12-29T09:58:46.455Z</time>
      </trkpt>
      <trkpt lat="54.119623973965645" lon="13.788227532058954">
        <ele>0.17</ele>
        <time>2023-12-29T09:58:47.474Z</time>
      </trkpt>
      <trkpt lat="54.119772082194686" lon="13.787979343906045">
        <ele>0.41</ele>
        <time>2023-12-29T09:58:48.500Z</time>
      </trkpt>
      <trkpt lat="54.11989537999034" lon="13.787784297019243">
        <ele>0.59</ele>
        <time>2023-12-29T09:58:49.531Z</time>
      </trkpt>
      <trkpt lat="54.12004985846579" lon="13.787555135786533">
        <ele>0.73</ele>
        <time>2023-12-29T09:58:50.569Z</time>
      </trkpt>
      <trkpt lat="54.1201252117753" lon="13.787442985922098">
        <ele>0.87</ele>
        <time>2023-12-29T09:58:51.610Z</time>
      </trkpt>
      <trkpt lat="54.120172653347254" lon="13.787366542965174">
        <ele>1.04</ele>
        <time>2023-12-29T09:58:52.654Z</time>
      </trkpt>
      <trkpt lat="54.120188830420375" lon="13.78721198067069">
        <ele>1.24</ele>
        <time>2023-12-29T09:58:53.701Z</time>
      </trkpt>
      <trkpt lat="54.120174665004015" lon="13.787168813869357">
        <ele>1.4</ele>
        <time>2023-12-29T09:58:54.749Z</time>
      </trkpt>
      <trkpt lat="54.12011641077697" lon="13.787037888541818">
        <ele>1.56</ele>
        <time>2023-12-29T09:58:55.800Z</time>
      </trkpt>
      <trkpt lat="54.120043739676476" lon="13.786856839433312">
        <ele>1.68</ele>
        <time>2023-12-29T09:58:56.855Z</time>
      </trkpt>
      <trkpt lat="54.12002261728048" lon="13.786545116454363">
        <ele>1.78</ele>
        <time>2023-12-29T09:58:57.916Z</time>
      </trkpt>
      <trkpt lat="54.12005170248449" lon="13.78622249700129">
        <ele>1.89</ele>
        <time>2023-12-29T09:58:58.984Z</time>
      </trkpt>
      <trkpt lat="54.12006385624409" lon="13.786074556410313">
        <ele>1.96</ele>
        <time>2023-12-29T09:59:00.055Z</time>
      </trkpt>
      <trkpt lat="54.12009721621871" lon="13.785762833431363">
        <ele>1.98</ele>
        <time>2023-12-29T09:59:01.132Z</time>
      </trkpt>
      <trkpt lat="54.12010836414993" lon="13.785599302500486">
        <ele>1.97</ele>
        <time>2023-12-29T09:59:02.212Z</time>
      </trkpt>
      <trkpt lat="54.120095539838076" lon="13.785261679440737">
        <ele>1.97</ele>
        <time>2023-12-29T09:59:03.299Z</time>
      </trkpt>
      <trkpt lat="54.12010258063674" lon="13.785222033038735">
        <ele>1.96</ele>
        <time>2023-12-29T09:59:04.387Z</time>
      </trkpt>
      <trkpt lat="54.120098389685154" lon="13.785089682787657">
        <ele>1.92</ele>
        <time>2023-12-29T09:59:05.477Z</time>
      </trkpt>
      <trkpt lat="54.120083721354604" lon="13.785020364448428">
        <ele>1.91</ele>
        <time>2023-12-29T09:59:06.569Z</time>
      </trkpt>
      <trkpt lat="54.12006855010986" lon="13.784786844626069">
        <ele>1.92</ele>
        <time>2023-12-29T09:59:07.665Z</time>
      </trkpt>
      <trkpt lat="54.12013141438365" lon="13.784474451094866">
        <ele>1.89</ele>
        <time>2023-12-29T09:59:08.768Z</time>
      </trkpt>
      <trkpt lat="54.12023493088782" lon="13.784214612096548">
        <ele>1.9</ele>
        <time>2023-12-29T09:59:09.877Z</time>
      </trkpt>
      <trkpt lat="54.120295783504844" lon="13.784077484160662">
        <ele>1.92</ele>
        <time>2023-12-29T09:59:10.989Z</time>
      </trkpt>
      <trkpt lat="54.12037616595626" lon="13.783791996538639">
        <ele>1.94</ele>
        <time>2023-12-29T09:59:12.108Z</time>
      </trkpt>
      <trkpt lat="54.120382368564606" lon="13.783741788938642">
        <ele>1.98</ele>
        <time>2023-12-29T09:59:13.228Z</time>
      </trkpt>
      <trkpt lat="54.12043525837362" lon="13.78341338597238">
        <ele>2.09</ele>
        <time>2023-12-29T09:59:14.354Z</time>
      </trkpt>
      <trkpt lat="54.12043919786811" lon="13.783363681286573">
        <ele>2.13</ele>
        <time>2023-12-29T09:59:15.481Z</time>
      </trkpt>
      <trkpt lat="54.12049694918096" lon="13.783018430694938">
        <ele>2.2</ele>
        <time>2023-12-29T09:59:16.615Z</time>
      </trkpt>
      <trkpt lat="54.12057347595692" lon="13.782734116539359">
        <ele>2.22</ele>
        <time>2023-12-29T09:59:17.755Z</time>
      </trkpt>
      <trkpt lat="54.12058697082102" lon="13.782687010243535">
        <ele>2.2</ele>
        <time>2023-12-29T09:59:18.896Z</time>
      </trkpt>
      <trkpt lat="54.120685709640384" lon="13.782364809885621">
        <ele>2.17</ele>
        <time>2023-12-29T09:59:20.045Z</time>
      </trkpt>
      <trkpt lat="54.12072887644172" lon="13.782209325581789">
        <ele>2.09</ele>
        <time>2023-12-29T09:59:21.197Z</time>
      </trkpt>
      <trkpt lat="54.12078478373587" lon="13.781902128830552">
        <ele>1.97</ele>
        <time>2023-12-29T09:59:22.355Z</time>
      </trkpt>
      <trkpt lat="54.12080775015056" lon="13.781748991459608">
        <ele>1.88</ele>
        <time>2023-12-29T09:59:23.516Z</time>
      </trkpt>
      <trkpt lat="54.12085611373186" lon="13.781410194933414">
        <ele>1.82</ele>
        <time>2023-12-29T09:59:24.684Z</time>
      </trkpt>
      <trkpt lat="54.12088394165039" lon="13.781305085867643">
        <ele>1.71</ele>
        <time>2023-12-29T09:59:25.854Z</time>
      </trkpt>
      <trkpt lat="54.120957870036364" lon="13.781013144180179">
        <ele>1.54</ele>
        <time>2023-12-29T09:59:27.031Z</time>
      </trkpt>
      <trkpt lat="54.12096558138728" lon="13.78097165375948">
        <ele>1.43</ele>
        <time>2023-12-29T09:59:28.208Z</time>
      </trkpt>
      <trkpt lat="54.12101386114955" lon="13.780737044289708">
        <ele>1.28</ele>
        <time>2023-12-29T09:59:29.390Z</time>
      </trkpt>
      <trkpt lat="54.12105644121766" lon="13.780506122857332">
        <ele>1.15</ele>
        <time>2023-12-29T09:59:30.577Z</time>
      </trkpt>
      <trkpt lat="54.12108091637492" lon="13.78024360165">
        <ele>1.01</ele>
        <time>2023-12-29T09:59:31.769Z</time>
      </trkpt>
      <trkpt lat="54.12109994329512" lon="13.780064480379224">
        <ele>0.9</ele>
        <time>2023-12-29T09:59:32.965Z</time>
      </trkpt>
      <trkpt lat="54.12103976123035" lon="13.780052410438657">
        <ele>0.53</ele>
        <time>2023-12-29T09:59:34.163Z</time>
      </trkpt>
      <trkpt lat="54.121044874191284" lon="13.779977560043335">
        <ele>0.76</ele>
        <time>2023-12-29T09:59:35.362Z</time>
      </trkpt>
      <trkpt lat="54.12116297520697" lon="13.779323101043701">
        <ele>1.02</ele>
        <time>2023-12-29T09:59:36.575Z</time>
      </trkpt>
      <trkpt lat="54.121248722076416" lon="13.77884030342102">
        <ele>1.32</ele>
        <time>2023-12-29T09:59:37.798Z</time>
      </trkpt>
      <trkpt lat="54.12148475646973" lon="13.777810335159302">
        <ele>1.87</ele>
        <time>2023-12-29T09:59:39.042Z</time>
      </trkpt>
      <trkpt lat="54.1215705871582" lon="13.77760648727417">
        <ele>2.1</ele>
        <time>2023-12-29T09:59:40.291Z</time>
      </trkpt>
      <trkpt lat="54.1216778755188" lon="13.777467012405396">
        <ele>2.07</ele>
        <time>2023-12-29T09:59:41.545Z</time>
      </trkpt>
      <trkpt lat="54.12181735038757" lon="13.777316808700562">
        <ele>2.03</ele>
        <time>2023-12-29T09:59:42.804Z</time>
      </trkpt>
      <trkpt lat="54.121999740600586" lon="13.777220249176025">
        <ele>1.9</ele>
        <time>2023-12-29T09:59:44.070Z</time>
      </trkpt>
      <trkpt lat="54.12247180938721" lon="13.777188062667847">
        <ele>1.8</ele>
        <time>2023-12-29T09:59:45.351Z</time>
      </trkpt>
      <trkpt lat="54.122740030288696" lon="13.777209520339966">
        <ele>1.8</ele>
        <time>2023-12-29T09:59:46.641Z</time>
      </trkpt>
      <trkpt lat="54.12294387817383" lon="13.777263164520264">
        <ele>1.81</ele>
        <time>2023-12-29T09:59:47.938Z</time>
      </trkpt>
      <trkpt lat="54.12310481071472" lon="13.77734899520874">
        <ele>1.76</ele>
        <time>2023-12-29T09:59:49.241Z</time>
      </trkpt>
      <trkpt lat="54.123276472091675" lon="13.777467012405396">
        <ele>1.72</ele>
        <time>2023-12-29T09:59:50.550Z</time>
      </trkpt>
      <trkpt lat="54.12367343902588" lon="13.777467012405396">
        <ele>1.77</ele>
        <time>2023-12-29T09:59:51.872Z</time>
      </trkpt>
      <trkpt lat="54.12431716918945" lon="13.77759575843811">
        <ele>2.19</ele>
        <time>2023-12-29T09:59:53.216Z</time>
      </trkpt>
      <trkpt lat="54.12584066390991" lon="13.777992725372314">
        <ele>2.05</ele>
        <time>2023-12-29T09:59:54.612Z</time>
      </trkpt>
      <trkpt lat="54.12602313794196" lon="13.777981996536255">
        <ele>2.17</ele>
        <time>2023-12-29T09:59:56.014Z</time>
      </trkpt>
      <trkpt lat="54.12660249508917" lon="13.777885437011719">
        <ele>2.29</ele>
        <time>2023-12-29T09:59:57.435Z</time>
      </trkpt>
      <trkpt lat="54.12667751312256" lon="13.7778639793396">
        <ele>2.36</ele>
        <time>2023-12-29T09:59:58.859Z</time>
      </trkpt>
      <trkpt lat="54.12709593772888" lon="13.777552843093872">
        <ele>2.43</ele>
        <time>2023-12-29T10:00:00.298Z</time>
      </trkpt>
      <trkpt lat="54.12860878743231" lon="13.776651620864868">
        <ele>2.32</ele>
        <time>2023-12-29T10:00:01.790Z</time>
      </trkpt>
      <trkpt lat="54.12976750172675" lon="13.775964975357056">
        <ele>2.41</ele>
        <time>2023-12-29T10:00:03.323Z</time>
      </trkpt>
      <trkpt lat="54.129767417907715" lon="13.775964975357056">
        <ele>2.51</ele>
        <time>2023-12-29T10:00:04.856Z</time>
      </trkpt>
      <trkpt lat="54.132524812594056" lon="13.77434492111206">
        <ele>2.84</ele>
        <time>2023-12-29T10:00:06.487Z</time>
      </trkpt>
      <trkpt lat="54.132524728775024" lon="13.77434492111206">
        <ele>2.99</ele>
        <time>2023-12-29T10:00:08.118Z</time>
      </trkpt>
      <trkpt lat="54.13340449333191" lon="13.773829936981201">
        <ele>3.27</ele>
        <time>2023-12-29T10:00:09.780Z</time>
      </trkpt>
      <trkpt lat="54.13361915387213" lon="13.773797750473022">
        <ele>3.33</ele>
        <time>2023-12-29T10:00:11.449Z</time>
      </trkpt>
      <trkpt lat="54.1336190700531" lon="13.773797750473022">
        <ele>3.49</ele>
        <time>2023-12-29T10:00:13.118Z</time>
      </trkpt>
      <trkpt lat="54.13370498456061" lon="13.773797750473022">
        <ele>3.63</ele>
        <time>2023-12-29T10:00:14.790Z</time>
      </trkpt>
      <trkpt lat="54.13386583328247" lon="13.773797750473022">
        <ele>3.78</ele>
        <time>2023-12-29T10:00:16.467Z</time>
      </trkpt>
      <trkpt lat="54.13421996869147" lon="13.773797750473022">
        <ele>3.99</ele>
        <time>2023-12-29T10:00:18.156Z</time>
      </trkpt>
      <trkpt lat="54.13486361503601" lon="13.773797750473022">
        <ele>4.35</ele>
        <time>2023-12-29T10:00:19.867Z</time>
      </trkpt>
      <trkpt lat="54.135024547576904" lon="13.773797750473022">
        <ele>4.61</ele>
        <time>2023-12-29T10:00:21.583Z</time>
      </trkpt>
      <trkpt lat="54.13512110710144" lon="13.773636817932129">
        <ele>4.87</ele>
        <time>2023-12-29T10:00:23.303Z</time>
      </trkpt>
      <trkpt lat="54.135325038805604" lon="13.77359390258789">
        <ele>5.04</ele>
        <time>2023-12-29T10:00:25.030Z</time>
      </trkpt>
      <trkpt lat="54.13592576980591" lon="13.773443698883057">
        <ele>5.09</ele>
        <time>2023-12-29T10:00:26.778Z</time>
      </trkpt>
      <trkpt lat="54.135786378756166" lon="13.772950172424316">
        <ele>5.2</ele>
        <time>2023-12-29T10:00:28.536Z</time>
      </trkpt>
      <trkpt lat="54.1356897354126" lon="13.77261757850647">
        <ele>5.27</ele>
        <time>2023-12-29T10:00:30.302Z</time>
      </trkpt>
      <trkpt lat="54.13561463356018" lon="13.772252798080444">
        <ele>5.45</ele>
        <time>2023-12-29T10:00:32.075Z</time>
      </trkpt>
      <trkpt lat="54.135571802034974" lon="13.771705627441406">
        <ele>5.72</ele>
        <time>2023-12-29T10:00:33.859Z</time>
      </trkpt>
      <trkpt lat="54.135571802034974" lon="13.77159833908081">
        <ele>5.91</ele>
        <time>2023-12-29T10:00:35.645Z</time>
      </trkpt>
      <trkpt lat="54.13563617505133" lon="13.770986795425415">
        <ele>6.17</ele>
        <time>2023-12-29T10:00:37.443Z</time>
      </trkpt>
      <trkpt lat="54.13571119308472" lon="13.77037525177002">
        <ele>6.17</ele>
        <time>2023-12-29T10:00:39.254Z</time>
      </trkpt>
      <trkpt lat="54.135764837265015" lon="13.770031929016113">
        <ele>6.03</ele>
        <time>2023-12-29T10:00:41.072Z</time>
      </trkpt>
      <trkpt lat="54.13570054806769" lon="13.76960277557373">
        <ele>5.92</ele>
        <time>2023-12-29T10:00:42.898Z</time>
      </trkpt>
      <trkpt lat="54.135528802871704" lon="13.768905401229858">
        <ele>5.87</ele>
        <time>2023-12-29T10:00:44.739Z</time>
      </trkpt>
      <trkpt lat="54.13533576764166" lon="13.768283128738403">
        <ele>5.89</ele>
        <time>2023-12-29T10:00:46.594Z</time>
      </trkpt>
      <trkpt lat="54.13533568382263" lon="13.768283128738403">
        <ele>5.66</ele>
        <time>2023-12-29T10:00:48.449Z</time>
      </trkpt>
      <trkpt lat="54.13514256477356" lon="13.76762866973877">
        <ele>5.18</ele>
        <time>2023-12-29T10:00:50.318Z</time>
      </trkpt>
      <trkpt lat="54.1350781917572" lon="13.767478466033936">
        <ele>4.87</ele>
        <time>2023-12-29T10:00:52.191Z</time>
      </trkpt>
      <trkpt lat="54.13520693778992" lon="13.767317533493042">
        <ele>4.79</ele>
        <time>2023-12-29T10:00:54.069Z</time>
      </trkpt>
      <trkpt lat="54.135222444310784" lon="13.767303619533777">
        <ele>4.64</ele>
        <time>2023-12-29T10:00:55.948Z</time>
      </trkpt>
      <trkpt lat="54.13594722747803" lon="13.766652345657349">
        <ele>3.89</ele>
        <time>2023-12-29T10:00:57.854Z</time>
      </trkpt>
      <trkpt lat="54.13623698987067" lon="13.766405582427979">
        <ele>4.23</ele>
        <time>2023-12-29T10:00:59.771Z</time>
      </trkpt>
      <trkpt lat="54.136236906051636" lon="13.766405582427979">
        <ele>4.31</ele>
        <time>2023-12-29T10:01:01.688Z</time>
      </trkpt>
      <trkpt lat="54.13623698987067" lon="13.766405582427979">
        <ele>4.91</ele>
        <time>2023-12-29T10:01:03.605Z</time>
      </trkpt>
      <trkpt lat="54.13630127906799" lon="13.766341209411621">
        <ele>5.07</ele>
        <time>2023-12-29T10:01:05.524Z</time>
      </trkpt>
      <trkpt lat="54.136569583788514" lon="13.76612663269043">
        <ele>5.41</ele>
        <time>2023-12-29T10:01:07.453Z</time>
      </trkpt>
      <trkpt lat="54.13683772087097" lon="13.765922784805298">
        <ele>5.55</ele>
        <time>2023-12-29T10:01:09.392Z</time>
      </trkpt>
      <trkpt lat="54.137728214263916" lon="13.76911997795105">
        <ele>5.51</ele>
        <time>2023-12-29T10:01:11.401Z</time>
      </trkpt>
      <trkpt lat="54.13783550262451" lon="13.769463300704956">
        <ele>5.36</ele>
        <time>2023-12-29T10:01:13.417Z</time>
      </trkpt>
      <trkpt lat="54.13783558644354" lon="13.769463300704956">
        <ele>5.22</ele>
        <time>2023-12-29T10:01:15.433Z</time>
      </trkpt>
      <trkpt lat="54.13796424865723" lon="13.769924640655518">
        <ele>4.98</ele>
        <time>2023-12-29T10:01:17.459Z</time>
      </trkpt>
      <trkpt lat="54.13796433247626" lon="13.769924640655518">
        <ele>4.8</ele>
        <time>2023-12-29T10:01:19.485Z</time>
      </trkpt>
      <trkpt lat="54.13809307850897" lon="13.7703537940979">
        <ele>4.49</ele>
        <time>2023-12-29T10:01:21.521Z</time>
      </trkpt>
      <trkpt lat="54.13817882537842" lon="13.77063274383545">
        <ele>4.37</ele>
        <time>2023-12-29T10:01:23.563Z</time>
      </trkpt>
      <trkpt lat="54.1382110118866" lon="13.770675659179688">
        <ele>4.31</ele>
        <time>2023-12-29T10:01:25.606Z</time>
      </trkpt>
      <trkpt lat="54.138286197558045" lon="13.770707845687866">
        <ele>4.34</ele>
        <time>2023-12-29T10:01:27.652Z</time>
      </trkpt>
      <trkpt lat="54.13833975791931" lon="13.770707845687866">
        <ele>4.4</ele>
        <time>2023-12-29T10:01:29.700Z</time>
      </trkpt>
      <trkpt lat="54.13844713009894" lon="13.77063274383545">
        <ele>4.52</ele>
        <time>2023-12-29T10:01:31.751Z</time>
      </trkpt>
      <trkpt lat="54.1389621142298" lon="13.770396709442139">
        <ele>4.61</ele>
        <time>2023-12-29T10:01:33.820Z</time>
      </trkpt>
      <trkpt lat="54.139037216082215" lon="13.77037525177002">
        <ele>4.63</ele>
        <time>2023-12-29T10:01:35.892Z</time>
      </trkpt>
      <trkpt lat="54.13914442062378" lon="13.770461082458496">
        <ele>4.6</ele>
        <time>2023-12-29T10:01:37.968Z</time>
      </trkpt>
      <trkpt lat="54.1390585899353" lon="13.771136999130249">
        <ele>4.96</ele>
        <time>2023-12-29T10:01:40.057Z</time>
      </trkpt>
      <trkpt lat="54.13910158909857" lon="13.771158456802368">
        <ele>5.02</ele>
        <time>2023-12-29T10:01:42.148Z</time>
      </trkpt>
      <trkpt lat="54.13891911506653" lon="13.774012327194214">
        <ele>5.5</ele>
        <time>2023-12-29T10:01:44.295Z</time>
      </trkpt>
      <trkpt lat="54.13887619972229" lon="13.774001598358154">
        <ele>5.63</ele>
        <time>2023-12-29T10:01:46.444Z</time>
      </trkpt>
      <trkpt lat="54.138747453689575" lon="13.776082992553711">
        <ele>5.81</ele>
        <time>2023-12-29T10:01:48.634Z</time>
      </trkpt>
      <trkpt lat="54.138747453689575" lon="13.776651620864868">
        <ele>5.82</ele>
        <time>2023-12-29T10:01:50.835Z</time>
      </trkpt>
      <trkpt lat="54.13880109786987" lon="13.777327537536621">
        <ele>5.47</ele>
        <time>2023-12-29T10:01:53.049Z</time>
      </trkpt>
      <trkpt lat="54.13886547088623" lon="13.777778148651123">
        <ele>4.63</ele>
        <time>2023-12-29T10:01:55.272Z</time>
      </trkpt>
      <trkpt lat="54.13882255554199" lon="13.778067827224731">
        <ele>4.02</ele>
        <time>2023-12-29T10:01:57.501Z</time>
      </trkpt>
      <trkpt lat="54.13858652114868" lon="13.777638673782349">
        <ele>3.9</ele>
        <time>2023-12-29T10:01:59.742Z</time>
      </trkpt>
      <trkpt lat="54.138489961624146" lon="13.777509927749634">
        <ele>3.74</ele>
        <time>2023-12-29T10:02:01.987Z</time>
      </trkpt>
      <trkpt lat="54.138768911361694" lon="13.778893947601318">
        <ele>3.35</ele>
        <time>2023-12-29T10:02:04.260Z</time>
      </trkpt>
      <trkpt lat="54.13883336819708" lon="13.77909779548645">
        <ele>3.29</ele>
        <time>2023-12-29T10:02:06.538Z</time>
      </trkpt>
      <trkpt lat="54.138972759246826" lon="13.779290914535522">
        <ele>3.26</ele>
        <time>2023-12-29T10:02:08.822Z</time>
      </trkpt>
      <trkpt lat="54.139015674591064" lon="13.77961277961731">
        <ele>3.31</ele>
        <time>2023-12-29T10:02:11.112Z</time>
      </trkpt>
      <trkpt lat="54.13909077644348" lon="13.779816627502441">
        <ele>3.45</ele>
        <time>2023-12-29T10:02:13.407Z</time>
      </trkpt>
      <trkpt lat="54.139273166656494" lon="13.780138492584229">
        <ele>3.52</ele>
        <time>2023-12-29T10:02:15.711Z</time>
      </trkpt>
      <trkpt lat="54.13934826850891" lon="13.780524730682373">
        <ele>3.84</ele>
        <time>2023-12-29T10:02:18.023Z</time>
      </trkpt>
      <trkpt lat="54.13971304893494" lon="13.781780004501343">
        <ele>4.03</ele>
        <time>2023-12-29T10:02:20.362Z</time>
      </trkpt>
      <trkpt lat="54.13993843831122" lon="13.782874345779419">
        <ele>4.04</ele>
        <time>2023-12-29T10:02:22.724Z</time>
      </trkpt>
      <trkpt lat="54.13993835449219" lon="13.782874345779419">
        <ele>4.29</ele>
        <time>2023-12-29T10:02:25.086Z</time>
      </trkpt>
      <trkpt lat="54.140625" lon="13.787176609039307">
        <ele>5.09</ele>
        <time>2023-12-29T10:02:27.535Z</time>
      </trkpt>
      <trkpt lat="54.141258001327515" lon="13.790996074676514">
        <ele>5.11</ele>
        <time>2023-12-29T10:02:30.062Z</time>
      </trkpt>
      <trkpt lat="54.141504764556885" lon="13.791038990020752">
        <ele>5.28</ele>
        <time>2023-12-29T10:02:32.598Z</time>
      </trkpt>
      <trkpt lat="54.141526306048036" lon="13.79108190536499">
        <ele>5.49</ele>
        <time>2023-12-29T10:02:35.135Z</time>
      </trkpt>
      <trkpt lat="54.141526222229004" lon="13.79108190536499">
        <ele>5.71</ele>
        <time>2023-12-29T10:02:37.672Z</time>
      </trkpt>
      <trkpt lat="54.14233088493347" lon="13.793131113052368">
        <ele>5.87</ele>
        <time>2023-12-29T10:02:40.257Z</time>
      </trkpt>
      <trkpt lat="54.14259910583496" lon="13.793528079986572">
        <ele>6.32</ele>
        <time>2023-12-29T10:02:42.854Z</time>
      </trkpt>
      <trkpt lat="54.14272793568671" lon="13.793742656707764">
        <ele>6.81</ele>
        <time>2023-12-29T10:02:45.457Z</time>
      </trkpt>
      <trkpt lat="54.142727851867676" lon="13.793742656707764">
        <ele>7.28</ele>
        <time>2023-12-29T10:02:48.060Z</time>
      </trkpt>
      <trkpt lat="54.14287805557251" lon="13.794225454330444">
        <ele>7.97</ele>
        <time>2023-12-29T10:02:50.674Z</time>
      </trkpt>
      <trkpt lat="54.14391875267029" lon="13.798946142196655">
        <ele>8.67</ele>
        <time>2023-12-29T10:02:53.386Z</time>
      </trkpt>
      <trkpt lat="54.14443373680115" lon="13.800662755966187">
        <ele>8.84</ele>
        <time>2023-12-29T10:02:56.136Z</time>
      </trkpt>
      <trkpt lat="54.1446590423584" lon="13.801456689834595">
        <ele>8.16</ele>
        <time>2023-12-29T10:02:58.904Z</time>
      </trkpt>
      <trkpt lat="54.144755601882935" lon="13.801885843276978">
        <ele>7.74</ele>
        <time>2023-12-29T10:03:01.681Z</time>
      </trkpt>
      <trkpt lat="54.144780496135354" lon="13.802020205184817">
        <ele>7.39</ele>
        <time>2023-12-29T10:03:04.460Z</time>
      </trkpt>
      <trkpt lat="54.14478862658143" lon="13.802015846595168">
        <ele>8.73</ele>
        <time>2023-12-29T10:03:07.240Z</time>
      </trkpt>
      <trkpt lat="54.14481393992901" lon="13.802161691710353">
        <ele>8.74</ele>
        <time>2023-12-29T10:03:10.023Z</time>
      </trkpt>
      <trkpt lat="54.14486138150096" lon="13.80245866253972">
        <ele>8.81</ele>
        <time>2023-12-29T10:03:12.812Z</time>
      </trkpt>
      <trkpt lat="54.14490446448326" lon="13.802834255620837">
        <ele>8.91</ele>
        <time>2023-12-29T10:03:15.608Z</time>
      </trkpt>
      <trkpt lat="54.14493698626757" lon="13.803201131522655">
        <ele>9.11</ele>
        <time>2023-12-29T10:03:18.411Z</time>
      </trkpt>
      <trkpt lat="54.144962802529335" lon="13.803510256111622">
        <ele>9.29</ele>
        <time>2023-12-29T10:03:21.220Z</time>
      </trkpt>
      <trkpt lat="54.14499473758042" lon="13.803891884163022">
        <ele>9.5</ele>
        <time>2023-12-29T10:03:24.037Z</time>
      </trkpt>
      <trkpt lat="54.14502700790763" lon="13.80427049472928">
        <ele>9.61</ele>
        <time>2023-12-29T10:03:26.862Z</time>
      </trkpt>
      <trkpt lat="54.14505584165454" lon="13.804635191336274">
        <ele>9.71</ele>
        <time>2023-12-29T10:03:29.694Z</time>
      </trkpt>
      <trkpt lat="54.14508626796305" lon="13.804968791082501">
        <ele>9.74</ele>
        <time>2023-12-29T10:03:32.532Z</time>
      </trkpt>
      <trkpt lat="54.145105043426156" lon="13.80516660399735">
        <ele>9.74</ele>
        <time>2023-12-29T10:03:35.374Z</time>
      </trkpt>
      <trkpt lat="54.14513220079243" lon="13.805520823225379">
        <ele>9.72</ele>
        <time>2023-12-29T10:03:38.223Z</time>
      </trkpt>
      <trkpt lat="54.145138235762715" lon="13.805590644478798">
        <ele>9.68</ele>
        <time>2023-12-29T10:03:41.074Z</time>
      </trkpt>
      <trkpt lat="54.1451632976532" lon="13.805950982496142">
        <ele>9.53</ele>
        <time>2023-12-29T10:03:43.932Z</time>
      </trkpt>
      <trkpt lat="54.145183162763715" lon="13.806170923635364">
        <ele>9.39</ele>
        <time>2023-12-29T10:03:46.794Z</time>
      </trkpt>
      <trkpt lat="54.14521132595837" lon="13.80653771571815">
        <ele>9.23</ele>
        <time>2023-12-29T10:03:49.663Z</time>
      </trkpt>
      <trkpt lat="54.145229095593095" lon="13.806835608556867">
        <ele>9.18</ele>
        <time>2023-12-29T10:03:52.538Z</time>
      </trkpt>
      <trkpt lat="54.14523513056338" lon="13.807221092283726">
        <ele>9.13</ele>
        <time>2023-12-29T10:03:55.421Z</time>
      </trkpt>
      <trkpt lat="54.145231107249856" lon="13.807373978197575">
        <ele>9.1</ele>
        <time>2023-12-29T10:03:58.307Z</time>
      </trkpt>
      <trkpt lat="54.14519648998976" lon="13.807680672034621">
        <ele>9.1</ele>
        <time>2023-12-29T10:04:01.199Z</time>
      </trkpt>
      <trkpt lat="54.145156759768724" lon="13.807903295382857">
        <ele>9.13</ele>
        <time>2023-12-29T10:04:04.096Z</time>
      </trkpt>
      <trkpt lat="54.14507604204118" lon="13.808241924270988">
        <ele>9.27</ele>
        <time>2023-12-29T10:04:07.000Z</time>
      </trkpt>
      <trkpt lat="54.14499247446656" lon="13.80855917930603">
        <ele>9.33</ele>
        <time>2023-12-29T10:04:09.911Z</time>
      </trkpt>
      <trkpt lat="54.14489985443652" lon="13.808867130428553">
        <ele>9.37</ele>
        <time>2023-12-29T10:04:12.828Z</time>
      </trkpt>
      <trkpt lat="54.14480379782617" lon="13.809187235310674">
        <ele>9.46</ele>
        <time>2023-12-29T10:04:15.752Z</time>
      </trkpt>
      <trkpt lat="54.14478418417275" lon="13.809257559478283">
        <ele>9.52</ele>
        <time>2023-12-29T10:04:18.678Z</time>
      </trkpt>
      <trkpt lat="54.144738083705306" lon="13.809451516717672">
        <ele>9.62</ele>
        <time>2023-12-29T10:04:21.608Z</time>
      </trkpt>
      <trkpt lat="54.144703382626176" lon="13.809576909989119">
        <ele>9.71</ele>
        <time>2023-12-29T10:04:24.541Z</time>
      </trkpt>
      <trkpt lat="54.14466792717576" lon="13.80961655639112">
        <ele>9.78</ele>
        <time>2023-12-29T10:04:27.475Z</time>
      </trkpt>
      <trkpt lat="54.14453859440982" lon="13.809766424819827">
        <ele>9.86</ele>
        <time>2023-12-29T10:04:30.414Z</time>
      </trkpt>
      <trkpt lat="54.14448034018278" lon="13.80982811562717">
        <ele>9.94</ele>
        <time>2023-12-29T10:04:33.356Z</time>
      </trkpt>
      <trkpt lat="54.14432284422219" lon="13.810012014582753">
        <ele>9.97</ele>
        <time>2023-12-29T10:04:36.304Z</time>
      </trkpt>
      <trkpt lat="54.14421639405191" lon="13.81015065126121">
        <ele>10.06</ele>
        <time>2023-12-29T10:04:39.256Z</time>
      </trkpt>
      <trkpt lat="54.144144309684634" lon="13.81022633984685">
        <ele>10.1</ele>
        <time>2023-12-29T10:04:42.211Z</time>
      </trkpt>
      <trkpt lat="54.14403811097145" lon="13.810358857735991">
        <ele>10.06</ele>
        <time>2023-12-29T10:04:45.171Z</time>
      </trkpt>
      <trkpt lat="54.143929397687316" lon="13.810487100854516">
        <ele>10.06</ele>
        <time>2023-12-29T10:04:48.135Z</time>
      </trkpt>
      <trkpt lat="54.14382252842188" lon="13.810622049495578">
        <ele>10.04</ele>
        <time>2023-12-29T10:04:51.104Z</time>
      </trkpt>
      <trkpt lat="54.143780870363116" lon="13.810665551573038">
        <ele>9.99</ele>
        <time>2023-12-29T10:04:54.074Z</time>
      </trkpt>
      <trkpt lat="54.1436262242496" lon="13.810840817168355">
        <ele>9.9</ele>
        <time>2023-12-29T10:04:57.050Z</time>
      </trkpt>
      <trkpt lat="54.143467051908374" lon="13.811041312292218">
        <ele>9.76</ele>
        <time>2023-12-29T10:05:00.033Z</time>
      </trkpt>
      <trkpt lat="54.14339270442724" lon="13.81112890318036">
        <ele>9.6</ele>
        <time>2023-12-29T10:05:03.019Z</time>
      </trkpt>
      <trkpt lat="54.143353309482336" lon="13.811187911778688">
        <ele>9.46</ele>
        <time>2023-12-29T10:05:06.007Z</time>
      </trkpt>
      <trkpt lat="54.143189610913396" lon="13.811368457973003">
        <ele>9.29</ele>
        <time>2023-12-29T10:05:09.001Z</time>
      </trkpt>
      <trkpt lat="54.14311157539487" lon="13.81147038191557">
        <ele>9.2</ele>
        <time>2023-12-29T10:05:11.999Z</time>
      </trkpt>
      <trkpt lat="54.142979392781854" lon="13.811597535386682">
        <ele>9.14</ele>
        <time>2023-12-29T10:05:15.002Z</time>
      </trkpt>
      <trkpt lat="54.14290244691074" lon="13.811705159023404">
        <ele>9.15</ele>
        <time>2023-12-29T10:05:18.008Z</time>
      </trkpt>
      <trkpt lat="54.142732210457325" lon="13.81190875545144">
        <ele>9.22</ele>
        <time>2023-12-29T10:05:21.021Z</time>
      </trkpt>
      <trkpt lat="54.14257370866835" lon="13.81210614927113">
        <ele>9.3</ele>
        <time>2023-12-29T10:05:24.040Z</time>
      </trkpt>
      <trkpt lat="54.142420487478375" lon="13.812296921387315">
        <ele>9.38</ele>
        <time>2023-12-29T10:05:27.066Z</time>
      </trkpt>
      <trkpt lat="54.14227103814483" lon="13.812481993809342">
        <ele>9.34</ele>
        <time>2023-12-29T10:05:30.098Z</time>
      </trkpt>
      <trkpt lat="54.14211890660226" lon="13.812671592459083">
        <ele>9.22</ele>
        <time>2023-12-29T10:05:33.136Z</time>
      </trkpt>
      <trkpt lat="54.14203810505569" lon="13.812772845849395">
        <ele>9.23</ele>
        <time>2023-12-29T10:05:36.178Z</time>
      </trkpt>
      <trkpt lat="54.14187490940094" lon="13.812961941584945">
        <ele>9.17</ele>
        <time>2023-12-29T10:05:39.226Z</time>
      </trkpt>
      <trkpt lat="54.14171406067908" lon="13.81313662044704">
        <ele>9.21</ele>
        <time>2023-12-29T10:05:42.281Z</time>
      </trkpt>
      <trkpt lat="54.14158648811281" lon="13.813260504975915">
        <ele>9.27</ele>
        <time>2023-12-29T10:05:45.340Z</time>
      </trkpt>
      <trkpt lat="54.14141164161265" lon="13.813381623476744">
        <ele>9.36</ele>
        <time>2023-12-29T10:05:48.406Z</time>
      </trkpt>
      <trkpt lat="54.14127887226641" lon="13.81346594542265">
        <ele>9.38</ele>
        <time>2023-12-29T10:05:51.477Z</time>
      </trkpt>
      <trkpt lat="54.14109715260565" lon="13.813576251268387">
        <ele>9.4</ele>
        <time>2023-12-29T10:05:54.554Z</time>
      </trkpt>
      <trkpt lat="54.14096270687878" lon="13.813647916540504">
        <ele>9.37</ele>
        <time>2023-12-29T10:05:57.636Z</time>
      </trkpt>
      <trkpt lat="54.140876876190305" lon="13.813692340627313">
        <ele>9.29</ele>
        <time>2023-12-29T10:06:00.721Z</time>
      </trkpt>
      <trkpt lat="54.140694150701165" lon="13.813763419166207">
        <ele>9.2</ele>
        <time>2023-12-29T10:06:03.812Z</time>
      </trkpt>
      <trkpt lat="54.140614019706845" lon="13.813809771090746">
        <ele>9.04</ele>
        <time>2023-12-29T10:06:06.906Z</time>
      </trkpt>
      <trkpt lat="54.14043833501637" lon="13.813901050016284">
        <ele>8.84</ele>
        <time>2023-12-29T10:06:10.006Z</time>
      </trkpt>
      <trkpt lat="54.14039667695761" lon="13.813925525173545">
        <ele>8.64</ele>
        <time>2023-12-29T10:06:13.107Z</time>
      </trkpt>
      <trkpt lat="54.14021076634526" lon="13.814014960080385">
        <ele>8.37</ele>
        <time>2023-12-29T10:06:16.215Z</time>
      </trkpt>
      <trkpt lat="54.14003130979836" lon="13.814108418300748">
        <ele>8.12</ele>
        <time>2023-12-29T10:06:19.329Z</time>
      </trkpt>
      <trkpt lat="54.139939192682505" lon="13.814156111329794">
        <ele>7.91</ele>
        <time>2023-12-29T10:06:22.446Z</time>
      </trkpt>
      <trkpt lat="54.13979058153927" lon="13.814221825450659">
        <ele>7.7</ele>
        <time>2023-12-29T10:06:25.568Z</time>
      </trkpt>
      <trkpt lat="54.13974062539637" lon="13.814244959503412">
        <ele>7.56</ele>
        <time>2023-12-29T10:06:28.692Z</time>
      </trkpt>
      <trkpt lat="54.13953795097768" lon="13.814306231215596">
        <ele>7.42</ele>
        <time>2023-12-29T10:06:31.823Z</time>
      </trkpt>
      <trkpt lat="54.13943829014897" lon="13.81434109993279">
        <ele>7.36</ele>
        <time>2023-12-29T10:06:34.957Z</time>
      </trkpt>
      <trkpt lat="54.139250786975026" lon="13.81438996642828">
        <ele>7.36</ele>
        <time>2023-12-29T10:06:38.098Z</time>
      </trkpt>
      <trkpt lat="54.13915288634598" lon="13.814417878165841">
        <ele>7.48</ele>
        <time>2023-12-29T10:06:41.242Z</time>
      </trkpt>
      <trkpt lat="54.13896479643881" lon="13.814466912299395">
        <ele>7.69</ele>
        <time>2023-12-29T10:06:44.392Z</time>
      </trkpt>
      <trkpt lat="54.13885901682079" lon="13.81449993699789">
        <ele>7.91</ele>
        <time>2023-12-29T10:06:47.546Z</time>
      </trkpt>
      <trkpt lat="54.13867226801813" lon="13.81456833332777">
        <ele>8.23</ele>
        <time>2023-12-29T10:06:50.706Z</time>
      </trkpt>
      <trkpt lat="54.13857797160745" lon="13.8146220613271">
        <ele>8.59</ele>
        <time>2023-12-29T10:06:53.870Z</time>
      </trkpt>
      <trkpt lat="54.13848862051964" lon="13.814677381888032">
        <ele>8.99</ele>
        <time>2023-12-29T10:06:57.037Z</time>
      </trkpt>
      <trkpt lat="54.1382987704128" lon="13.81480629555881">
        <ele>9.52</ele>
        <time>2023-12-29T10:07:00.211Z</time>
      </trkpt>
      <trkpt lat="54.13810431025922" lon="13.814909141510725">
        <ele>9.95</ele>
        <time>2023-12-29T10:07:03.391Z</time>
      </trkpt>
      <trkpt lat="54.137960728257895" lon="13.815018525347114">
        <ele>10.34</ele>
        <time>2023-12-29T10:07:06.577Z</time>
      </trkpt>
      <trkpt lat="54.137819074094296" lon="13.815109301358461">
        <ele>10.76</ele>
        <time>2023-12-29T10:07:09.768Z</time>
      </trkpt>
      <trkpt lat="54.13762813434005" lon="13.815251039341092">
        <ele>11.13</ele>
        <time>2023-12-29T10:07:12.966Z</time>
      </trkpt>
      <trkpt lat="54.13748069666326" lon="13.815350364893675">
        <ele>11.52</ele>
        <time>2023-12-29T10:07:16.169Z</time>
      </trkpt>
      <trkpt lat="54.13738388568163" lon="13.815414821729064">
        <ele>11.86</ele>
        <time>2023-12-29T10:07:19.376Z</time>
      </trkpt>
      <trkpt lat="54.137185821309686" lon="13.815559325739741">
        <ele>12.09</ele>
        <time>2023-12-29T10:07:22.590Z</time>
      </trkpt>
      <trkpt lat="54.13703938946128" lon="13.81565060466528">
        <ele>12.25</ele>
        <time>2023-12-29T10:07:25.809Z</time>
      </trkpt>
      <trkpt lat="54.13683487102389" lon="13.815739452838898">
        <ele>12.37</ele>
        <time>2023-12-29T10:07:29.035Z</time>
      </trkpt>
      <trkpt lat="54.136633621528745" lon="13.8158308994025">
        <ele>12.49</ele>
        <time>2023-12-29T10:07:32.268Z</time>
      </trkpt>
      <trkpt lat="54.13647662848234" lon="13.815887896344066">
        <ele>12.64</ele>
        <time>2023-12-29T10:07:35.506Z</time>
      </trkpt>
      <trkpt lat="54.13628594018519" lon="13.815987976267934">
        <ele>12.77</ele>
        <time>2023-12-29T10:07:38.751Z</time>
      </trkpt>
      <trkpt lat="54.1361300367862" lon="13.816055282950401">
        <ele>12.8</ele>
        <time>2023-12-29T10:07:42.001Z</time>
      </trkpt>
      <trkpt lat="54.135932978242636" lon="13.816153351217508">
        <ele>12.78</ele>
        <time>2023-12-29T10:07:45.258Z</time>
      </trkpt>
      <trkpt lat="54.13588386029005" lon="13.816164080053568">
        <ele>12.7</ele>
        <time>2023-12-29T10:07:48.517Z</time>
      </trkpt>
      <trkpt lat="54.13583742454648" lon="13.816197356209159">
        <ele>12.57</ele>
        <time>2023-12-29T10:07:51.778Z</time>
      </trkpt>
      <trkpt lat="54.13565704599023" lon="13.816292155534029">
        <ele>12.4</ele>
        <time>2023-12-29T10:07:55.045Z</time>
      </trkpt>
      <trkpt lat="54.13550851866603" lon="13.816341441124678">
        <ele>12.21</ele>
        <time>2023-12-29T10:07:58.317Z</time>
      </trkpt>
      <trkpt lat="54.135464346036315" lon="13.81637186743319">
        <ele>12.0</ele>
        <time>2023-12-29T10:08:01.590Z</time>
      </trkpt>
      <trkpt lat="54.135277261957526" lon="13.81648133508861">
        <ele>11.71</ele>
        <time>2023-12-29T10:08:04.870Z</time>
      </trkpt>
      <trkpt lat="54.135189754888415" lon="13.816541265696287">
        <ele>11.49</ele>
        <time>2023-12-29T10:08:08.153Z</time>
      </trkpt>
      <trkpt lat="54.13501901552081" lon="13.816649811342359">
        <ele>11.33</ele>
        <time>2023-12-29T10:08:11.442Z</time>
      </trkpt>
      <trkpt lat="54.13498003967106" lon="13.816680237650871">
        <ele>11.12</ele>
        <time>2023-12-29T10:08:14.733Z</time>
      </trkpt>
      <trkpt lat="54.13490074686706" lon="13.8167339656502">
        <ele>10.92</ele>
        <time>2023-12-29T10:08:18.027Z</time>
      </trkpt>
      <trkpt lat="54.134705532342196" lon="13.816878721117973">
        <ele>10.7</ele>
        <time>2023-12-29T10:08:21.328Z</time>
      </trkpt>
      <trkpt lat="54.134584832936525" lon="13.81697528064251">
        <ele>10.54</ele>
        <time>2023-12-29T10:08:24.633Z</time>
      </trkpt>
      <trkpt lat="54.13439188152552" lon="13.81712045520544">
        <ele>10.43</ele>
        <time>2023-12-29T10:08:27.945Z</time>
      </trkpt>
      <trkpt lat="54.134350726380944" lon="13.817136464640498">
        <ele>10.43</ele>
        <time>2023-12-29T10:08:31.259Z</time>
      </trkpt>
      <trkpt lat="54.13424503058195" lon="13.817226067185402">
        <ele>10.51</ele>
        <time>2023-12-29T10:08:34.577Z</time>
      </trkpt>
      <trkpt lat="54.13416573777795" lon="13.817271329462528">
        <ele>10.63</ele>
        <time>2023-12-29T10:08:37.897Z</time>
      </trkpt>
      <trkpt lat="54.13404864259064" lon="13.81734911352396">
        <ele>10.83</ele>
        <time>2023-12-29T10:08:41.222Z</time>
      </trkpt>
      <trkpt lat="54.13393272086978" lon="13.817426562309265">
        <ele>11.06</ele>
        <time>2023-12-29T10:08:44.551Z</time>
      </trkpt>
      <trkpt lat="54.133845968171954" lon="13.81746495142579">
        <ele>11.27</ele>
        <time>2023-12-29T10:08:47.883Z</time>
      </trkpt>
      <trkpt lat="54.13373155519366" lon="13.817524295300245">
        <ele>11.5</ele>
        <time>2023-12-29T10:08:51.219Z</time>
      </trkpt>
      <trkpt lat="54.1336449701339" lon="13.817548099905252">
        <ele>11.7</ele>
        <time>2023-12-29T10:08:54.558Z</time>
      </trkpt>
      <trkpt lat="54.13352770730853" lon="13.817586656659842">
        <ele>11.89</ele>
        <time>2023-12-29T10:08:57.901Z</time>
      </trkpt>
      <trkpt lat="54.13348219357431" lon="13.817589422687888">
        <ele>12.07</ele>
        <time>2023-12-29T10:09:01.245Z</time>
      </trkpt>
      <trkpt lat="54.13333802483976" lon="13.817616580054164">
        <ele>12.27</ele>
        <time>2023-12-29T10:09:04.594Z</time>
      </trkpt>
      <trkpt lat="54.13317197933793" lon="13.817638289183378">
        <ele>12.38</ele>
        <time>2023-12-29T10:09:07.949Z</time>
      </trkpt>
      <trkpt lat="54.13297642953694" lon="13.817657986655831">
        <ele>12.41</ele>
        <time>2023-12-29T10:09:11.310Z</time>
      </trkpt>
      <trkpt lat="54.132872158661485" lon="13.817670727148652">
        <ele>12.38</ele>
        <time>2023-12-29T10:09:14.675Z</time>
      </trkpt>
      <trkpt lat="54.13267166353762" lon="13.817683970555663">
        <ele>12.29</ele>
        <time>2023-12-29T10:09:18.046Z</time>
      </trkpt>
      <trkpt lat="54.132478879764676" lon="13.817676426842809">
        <ele>12.1</ele>
        <time>2023-12-29T10:09:21.424Z</time>
      </trkpt>
      <trkpt lat="54.13235692307353" lon="13.817651364952326">
        <ele>11.9</ele>
        <time>2023-12-29T10:09:24.806Z</time>
      </trkpt>
      <trkpt lat="54.13227008655667" lon="13.817639127373695">
        <ele>11.64</ele>
        <time>2023-12-29T10:09:28.191Z</time>
      </trkpt>
      <trkpt lat="54.132160283625126" lon="13.817605935037136">
        <ele>11.34</ele>
        <time>2023-12-29T10:09:31.579Z</time>
      </trkpt>
      <trkpt lat="54.132004799321294" lon="13.817565785720944">
        <ele>10.95</ele>
        <time>2023-12-29T10:09:34.973Z</time>
      </trkpt>
      <trkpt lat="54.13182148709893" lon="13.817534102126956">
        <ele>10.51</ele>
        <time>2023-12-29T10:09:38.373Z</time>
      </trkpt>
      <trkpt lat="54.13160942494869" lon="13.817476686090231">
        <ele>10.23</ele>
        <time>2023-12-29T10:09:41.780Z</time>
      </trkpt>
      <trkpt lat="54.13150615990162" lon="13.817447517067194">
        <ele>9.98</ele>
        <time>2023-12-29T10:09:45.190Z</time>
      </trkpt>
      <trkpt lat="54.13140415214002" lon="13.817442487925291">
        <ele>9.77</ele>
        <time>2023-12-29T10:09:48.604Z</time>
      </trkpt>
      <trkpt lat="54.131260653957725" lon="13.817520188167691">
        <ele>9.54</ele>
        <time>2023-12-29T10:09:52.023Z</time>
      </trkpt>
      <trkpt lat="54.13115940056741" lon="13.81761834025383">
        <ele>9.39</ele>
        <time>2023-12-29T10:09:55.446Z</time>
      </trkpt>
      <trkpt lat="54.13113157264888" lon="13.817645162343979">
        <ele>9.28</ele>
        <time>2023-12-29T10:09:58.870Z</time>
      </trkpt>
      <trkpt lat="54.13110206834972" lon="13.817679611966014">
        <ele>9.21</ele>
        <time>2023-12-29T10:10:02.295Z</time>
      </trkpt>
      <trkpt lat="54.13101598620415" lon="13.81777474656701">
        <ele>9.15</ele>
        <time>2023-12-29T10:10:05.724Z</time>
      </trkpt>
      <trkpt lat="54.130973909050226" lon="13.81781280040741">
        <ele>9.14</ele>
        <time>2023-12-29T10:10:09.154Z</time>
      </trkpt>
      <trkpt lat="54.130843821913004" lon="13.817920088768005">
        <ele>9.21</ele>
        <time>2023-12-29T10:10:12.589Z</time>
      </trkpt>
      <trkpt lat="54.13065833039582" lon="13.818083116784692">
        <ele>9.29</ele>
        <time>2023-12-29T10:10:16.031Z</time>
      </trkpt>
      <trkpt lat="54.130568811669946" lon="13.818146316334605">
        <ele>9.51</ele>
        <time>2023-12-29T10:10:19.476Z</time>
      </trkpt>
      <trkpt lat="54.130526315420866" lon="13.81816073320806">
        <ele>9.76</ele>
        <time>2023-12-29T10:10:22.923Z</time>
      </trkpt>
      <trkpt lat="54.1304814722389" lon="13.818169366568327">
        <ele>10.04</ele>
        <time>2023-12-29T10:10:26.371Z</time>
      </trkpt>
      <trkpt lat="54.13034920580685" lon="13.818174479529262">
        <ele>10.37</ele>
        <time>2023-12-29T10:10:29.824Z</time>
      </trkpt>
      <trkpt lat="54.13025759160519" lon="13.818215131759644">
        <ele>10.71</ele>
        <time>2023-12-29T10:10:33.280Z</time>
      </trkpt>
      <trkpt lat="54.130121218040586" lon="13.818276152014732">
        <ele>11.12</ele>
        <time>2023-12-29T10:10:36.740Z</time>
      </trkpt>
      <trkpt lat="54.130030777305365" lon="13.818304147571325">
        <ele>11.5</ele>
        <time>2023-12-29T10:10:40.203Z</time>
      </trkpt>
      <trkpt lat="54.12990496493876" lon="13.818366760388017">
        <ele>11.85</ele>
        <time>2023-12-29T10:10:43.671Z</time>
      </trkpt>
      <trkpt lat="54.129733806476" lon="13.818484274670482">
        <ele>12.2</ele>
        <time>2023-12-29T10:10:47.145Z</time>
      </trkpt>
      <trkpt lat="54.12968963384628" lon="13.818513276055455">
        <ele>12.5</ele>
        <time>2023-12-29T10:10:50.621Z</time>
      </trkpt>
      <trkpt lat="54.12960489280522" lon="13.818572787567973">
        <ele>12.77</ele>
        <time>2023-12-29T10:10:54.100Z</time>
      </trkpt>
      <trkpt lat="54.129399033263326" lon="13.818700779229403">
        <ele>12.94</ele>
        <time>2023-12-29T10:10:57.586Z</time>
      </trkpt>
      <trkpt lat="54.129277328029275" lon="13.818783424794674">
        <ele>13.16</ele>
        <time>2023-12-29T10:11:01.076Z</time>
      </trkpt>
      <trkpt lat="54.129073563963175" lon="13.818904794752598">
        <ele>13.32</ele>
        <time>2023-12-29T10:11:04.574Z</time>
      </trkpt>
      <trkpt lat="54.129034923389554" lon="13.818930694833398">
        <ele>13.48</ele>
        <time>2023-12-29T10:11:08.073Z</time>
      </trkpt>
      <trkpt lat="54.12895395420492" lon="13.818996995687485">
        <ele>13.64</ele>
        <time>2023-12-29T10:11:11.575Z</time>
      </trkpt>
      <trkpt lat="54.12877223454416" lon="13.819166645407677">
        <ele>13.76</ele>
        <time>2023-12-29T10:11:15.084Z</time>
      </trkpt>
      <trkpt lat="54.12866243161261" lon="13.819279968738556">
        <ele>13.89</ele>
        <time>2023-12-29T10:11:18.597Z</time>
      </trkpt>
      <trkpt lat="54.12847735919058" lon="13.819483313709497">
        <ele>14.0</ele>
        <time>2023-12-29T10:11:22.117Z</time>
      </trkpt>
      <trkpt lat="54.128362191841006" lon="13.819605773314834">
        <ele>14.12</ele>
        <time>2023-12-29T10:11:25.642Z</time>
      </trkpt>
      <trkpt lat="54.12825305946171" lon="13.819720018655062">
        <ele>14.24</ele>
        <time>2023-12-29T10:11:29.171Z</time>
      </trkpt>
      <trkpt lat="54.128149542957544" lon="13.819836610928178">
        <ele>14.33</ele>
        <time>2023-12-29T10:11:32.704Z</time>
      </trkpt>
      <trkpt lat="54.12807846441865" lon="13.819913221523166">
        <ele>14.4</ele>
        <time>2023-12-29T10:11:36.240Z</time>
      </trkpt>
      <trkpt lat="54.12793127819896" lon="13.820075495168567">
        <ele>14.47</ele>
        <time>2023-12-29T10:11:39.782Z</time>
      </trkpt>
      <trkpt lat="54.127777218818665" lon="13.820246988907456">
        <ele>14.54</ele>
        <time>2023-12-29T10:11:43.330Z</time>
      </trkpt>
      <trkpt lat="54.127635983750224" lon="13.820413956418633">
        <ele>14.54</ele>
        <time>2023-12-29T10:11:46.884Z</time>
      </trkpt>
      <trkpt lat="54.1274871211499" lon="13.82059265859425">
        <ele>14.55</ele>
        <time>2023-12-29T10:11:50.444Z</time>
      </trkpt>
      <trkpt lat="54.1274126060307" lon="13.820675639435649">
        <ele>14.51</ele>
        <time>2023-12-29T10:11:54.007Z</time>
      </trkpt>
      <trkpt lat="54.12733876146376" lon="13.820768762379885">
        <ele>14.5</ele>
        <time>2023-12-29T10:11:57.573Z</time>
      </trkpt>
      <trkpt lat="54.12717707455158" lon="13.820973113179207">
        <ele>14.41</ele>
        <time>2023-12-29T10:12:01.146Z</time>
      </trkpt>
      <trkpt lat="54.127143044024706" lon="13.82100848481059">
        <ele>14.33</ele>
        <time>2023-12-29T10:12:04.720Z</time>
      </trkpt>
      <trkpt lat="54.127017483115196" lon="13.821156425401568">
        <ele>14.24</ele>
        <time>2023-12-29T10:12:08.299Z</time>
      </trkpt>
      <trkpt lat="54.1269844584167" lon="13.821199592202902">
        <ele>14.1</ele>
        <time>2023-12-29T10:12:11.880Z</time>
      </trkpt>
      <trkpt lat="54.12680215202272" lon="13.821394052356482">
        <ele>13.87</ele>
        <time>2023-12-29T10:12:15.468Z</time>
      </trkpt>
      <trkpt lat="54.12676753476262" lon="13.8214345369488">
        <ele>13.68</ele>
        <time>2023-12-29T10:12:19.057Z</time>
      </trkpt>
      <trkpt lat="54.12659193389118" lon="13.821633104234934">
        <ele>13.42</ele>
        <time>2023-12-29T10:12:22.653Z</time>
      </trkpt>
      <trkpt lat="54.12645136937499" lon="13.821798479184508">
        <ele>13.18</ele>
        <time>2023-12-29T10:12:26.255Z</time>
      </trkpt>
      <trkpt lat="54.12641474045813" lon="13.821837957948446">
        <ele>12.95</ele>
        <time>2023-12-29T10:12:29.858Z</time>
      </trkpt>
      <trkpt lat="54.12624416872859" lon="13.822041219100356">
        <ele>12.73</ele>
        <time>2023-12-29T10:12:33.468Z</time>
      </trkpt>
      <trkpt lat="54.126210138201714" lon="13.822085475549102">
        <ele>12.51</ele>
        <time>2023-12-29T10:12:37.080Z</time>
      </trkpt>
      <trkpt lat="54.12602364085615" lon="13.822293179109693">
        <ele>12.29</ele>
        <time>2023-12-29T10:12:40.699Z</time>
      </trkpt>
      <trkpt lat="54.12590545602143" lon="13.822409771382809">
        <ele>12.09</ele>
        <time>2023-12-29T10:12:44.323Z</time>
      </trkpt>
      <trkpt lat="54.125867653638124" lon="13.822458637878299">
        <ele>11.87</ele>
        <time>2023-12-29T10:12:47.948Z</time>
      </trkpt>
      <trkpt lat="54.12570328451693" lon="13.822628119960427">
        <ele>11.64</ele>
        <time>2023-12-29T10:12:51.580Z</time>
      </trkpt>
      <trkpt lat="54.12566917017102" lon="13.822673298418522">
        <ele>11.37</ele>
        <time>2023-12-29T10:12:55.213Z</time>
      </trkpt>
      <trkpt lat="54.12551427260041" lon="13.82283783517778">
        <ele>11.11</ele>
        <time>2023-12-29T10:12:58.852Z</time>
      </trkpt>
      <trkpt lat="54.12543950602412" lon="13.822915786877275">
        <ele>10.82</ele>
        <time>2023-12-29T10:13:02.494Z</time>
      </trkpt>
      <trkpt lat="54.12529315799475" lon="13.823094656690955">
        <ele>10.45</ele>
        <time>2023-12-29T10:13:06.142Z</time>
      </trkpt>
      <trkpt lat="54.12518226541579" lon="13.823246452957392">
        <ele>10.07</ele>
        <time>2023-12-29T10:13:09.795Z</time>
      </trkpt>
      <trkpt lat="54.12503105588257" lon="13.823424987494946">
        <ele>9.72</ele>
        <time>2023-12-29T10:13:13.454Z</time>
      </trkpt>
      <trkpt lat="54.12488822825253" lon="13.823581645265222">
        <ele>9.52</ele>
        <time>2023-12-29T10:13:17.119Z</time>
      </trkpt>
      <trkpt lat="54.12473685108125" lon="13.823756156489253">
        <ele>9.4</ele>
        <time>2023-12-29T10:13:20.790Z</time>
      </trkpt>
      <trkpt lat="54.12470072507858" lon="13.823797982186079">
        <ele>9.29</ele>
        <time>2023-12-29T10:13:24.462Z</time>
      </trkpt>
      <trkpt lat="54.12453291937709" lon="13.823969559744">
        <ele>9.21</ele>
        <time>2023-12-29T10:13:28.141Z</time>
      </trkpt>
      <trkpt lat="54.12444851361215" lon="13.824041476473212">
        <ele>9.15</ele>
        <time>2023-12-29T10:13:31.823Z</time>
      </trkpt>
      <trkpt lat="54.12440341897309" lon="13.824081709608436">
        <ele>9.15</ele>
        <time>2023-12-29T10:13:35.507Z</time>
      </trkpt>
      <trkpt lat="54.12421742454171" lon="13.824213808402419">
        <ele>9.19</ele>
        <time>2023-12-29T10:13:39.198Z</time>
      </trkpt>
      <trkpt lat="54.12408406846225" lon="13.824292179197073">
        <ele>9.3</ele>
        <time>2023-12-29T10:13:42.893Z</time>
      </trkpt>
      <trkpt lat="54.123996226117015" lon="13.824339704588056">
        <ele>9.49</ele>
        <time>2023-12-29T10:13:46.591Z</time>
      </trkpt>
      <trkpt lat="54.12382112815976" lon="13.824438024312258">
        <ele>9.73</ele>
        <time>2023-12-29T10:13:50.296Z</time>
      </trkpt>
      <trkpt lat="54.12364795804024" lon="13.824546989053488">
        <ele>9.91</ele>
        <time>2023-12-29T10:13:54.007Z</time>
      </trkpt>
      <trkpt lat="54.12355760112405" lon="13.824592754244804">
        <ele>10.08</ele>
        <time>2023-12-29T10:13:57.721Z</time>
      </trkpt>
      <trkpt lat="54.123420640826225" lon="13.824645476415753">
        <ele>10.24</ele>
        <time>2023-12-29T10:14:01.440Z</time>
      </trkpt>
      <trkpt lat="54.123332714661956" lon="13.8246931694448">
        <ele>10.36</ele>
        <time>2023-12-29T10:14:05.162Z</time>
      </trkpt>
      <trkpt lat="54.12316205911338" lon="13.824799032881856">
        <ele>10.42</ele>
        <time>2023-12-29T10:14:08.890Z</time>
      </trkpt>
      <trkpt lat="54.12312962114811" lon="13.824818646535277">
        <ele>10.58</ele>
        <time>2023-12-29T10:14:12.619Z</time>
      </trkpt>
      <trkpt lat="54.123085364699364" lon="13.824843624606729">
        <ele>10.74</ele>
        <time>2023-12-29T10:14:16.349Z</time>
      </trkpt>
      <trkpt lat="54.1228795889765" lon="13.824956780299544">
        <ele>10.9</ele>
        <time>2023-12-29T10:14:20.087Z</time>
      </trkpt>
      <trkpt lat="54.12271480076015" lon="13.82505384273827">
        <ele>11.06</ele>
        <time>2023-12-29T10:14:23.830Z</time>
      </trkpt>
      <trkpt lat="54.12263508886099" lon="13.8251041341573">
        <ele>11.23</ele>
        <time>2023-12-29T10:14:27.576Z</time>
      </trkpt>
      <trkpt lat="54.12243878468871" lon="13.82520915940404">
        <ele>11.44</ele>
        <time>2023-12-29T10:14:31.329Z</time>
      </trkpt>
      <trkpt lat="54.12240064702928" lon="13.825231874361634">
        <ele>11.57</ele>
        <time>2023-12-29T10:14:35.083Z</time>
      </trkpt>
      <trkpt lat="54.12236292846501" lon="13.825243106111884">
        <ele>11.68</ele>
        <time>2023-12-29T10:14:38.839Z</time>
      </trkpt>
      <trkpt lat="54.12221984937787" lon="13.825329691171646">
        <ele>11.8</ele>
        <time>2023-12-29T10:14:42.600Z</time>
      </trkpt>
      <trkpt lat="54.12201323546469" lon="13.825438488274813">
        <ele>11.87</ele>
        <time>2023-12-29T10:14:46.368Z</time>
      </trkpt>
      <trkpt lat="54.12197073921561" lon="13.825459526851773">
        <ele>11.87</ele>
        <time>2023-12-29T10:14:50.138Z</time>
      </trkpt>
      <trkpt lat="54.12179564125836" lon="13.825548458844423">
        <ele>11.83</ele>
        <time>2023-12-29T10:14:53.914Z</time>
      </trkpt>
      <trkpt lat="54.12162381224334" lon="13.825637474656105">
        <ele>11.7</ele>
        <time>2023-12-29T10:14:57.696Z</time>
      </trkpt>
      <trkpt lat="54.12141904234886" lon="13.825755240395665">
        <ele>11.51</ele>
        <time>2023-12-29T10:15:01.485Z</time>
      </trkpt>
      <trkpt lat="54.12137973122299" lon="13.8257896900177">
        <ele>11.3</ele>
        <time>2023-12-29T10:15:05.275Z</time>
      </trkpt>
      <trkpt lat="54.12133924663067" lon="13.825822547078133">
        <ele>11.05</ele>
        <time>2023-12-29T10:15:09.067Z</time>
      </trkpt>
      <trkpt lat="54.121148474514484" lon="13.825993621721864">
        <ele>10.72</ele>
        <time>2023-12-29T10:15:12.866Z</time>
      </trkpt>
      <trkpt lat="54.121001455932856" lon="13.826127145439386">
        <ele>10.37</ele>
        <time>2023-12-29T10:15:16.671Z</time>
      </trkpt>
      <trkpt lat="54.12083398550749" lon="13.826299058273435">
        <ele>9.99</ele>
        <time>2023-12-29T10:15:20.482Z</time>
      </trkpt>
      <trkpt lat="54.12073432467878" lon="13.82640391588211">
        <ele>9.61</ele>
        <time>2023-12-29T10:15:24.297Z</time>
      </trkpt>
      <trkpt lat="54.12057272158563" lon="13.826563758775592">
        <ele>9.23</ele>
        <time>2023-12-29T10:15:28.118Z</time>
      </trkpt>
      <trkpt lat="54.12047280929983" lon="13.826670041307807">
        <ele>8.84</ele>
        <time>2023-12-29T10:15:31.943Z</time>
      </trkpt>
      <trkpt lat="54.1203030757606" lon="13.826846731826663">
        <ele>8.51</ele>
        <time>2023-12-29T10:15:35.775Z</time>
      </trkpt>
      <trkpt lat="54.120141891762614" lon="13.827012106776237">
        <ele>8.12</ele>
        <time>2023-12-29T10:15:39.613Z</time>
      </trkpt>
      <trkpt lat="54.12007919512689" lon="13.82708259858191">
        <ele>7.78</ele>
        <time>2023-12-29T10:15:43.454Z</time>
      </trkpt>
      <trkpt lat="54.119904432445765" lon="13.82719935849309">
        <ele>7.46</ele>
        <time>2023-12-29T10:15:47.301Z</time>
      </trkpt>
      <trkpt lat="54.119851710274816" lon="13.82721645757556">
        <ele>7.2</ele>
        <time>2023-12-29T10:15:51.150Z</time>
      </trkpt>
      <trkpt lat="54.119833605363965" lon="13.827248057350516">
        <ele>6.98</ele>
        <time>2023-12-29T10:15:55.000Z</time>
      </trkpt>
      <trkpt lat="54.11974433809519" lon="13.827401781454682">
        <ele>6.79</ele>
        <time>2023-12-29T10:15:58.854Z</time>
      </trkpt>
      <trkpt lat="54.11972044967115" lon="13.827429357916117">
        <ele>6.68</ele>
        <time>2023-12-29T10:16:02.709Z</time>
      </trkpt>
      <trkpt lat="54.119560942053795" lon="13.827606718987226">
        <ele>6.59</ele>
        <time>2023-12-29T10:16:06.570Z</time>
      </trkpt>
      <trkpt lat="54.119473518803716" lon="13.827696489170194">
        <ele>6.6</ele>
        <time>2023-12-29T10:16:10.435Z</time>
      </trkpt>
      <trkpt lat="54.11929188296199" lon="13.827878879383206">
        <ele>6.66</ele>
        <time>2023-12-29T10:16:14.307Z</time>
      </trkpt>
      <trkpt lat="54.11919825710356" lon="13.827975271269679">
        <ele>6.8</ele>
        <time>2023-12-29T10:16:18.182Z</time>
      </trkpt>
      <trkpt lat="54.119040593504906" lon="13.828148022294044">
        <ele>6.99</ele>
        <time>2023-12-29T10:16:22.063Z</time>
      </trkpt>
      <trkpt lat="54.11886683665216" lon="13.828309709206223">
        <ele>7.17</ele>
        <time>2023-12-29T10:16:25.951Z</time>
      </trkpt>
      <trkpt lat="54.11872426047921" lon="13.828363353386521">
        <ele>7.41</ele>
        <time>2023-12-29T10:16:29.844Z</time>
      </trkpt>
      <trkpt lat="54.11869333125651" lon="13.8283955398947">
        <ele>7.58</ele>
        <time>2023-12-29T10:16:33.738Z</time>
      </trkpt>
      <trkpt lat="54.118520664051175" lon="13.828549683094025">
        <ele>7.72</ele>
        <time>2023-12-29T10:16:37.639Z</time>
      </trkpt>
      <trkpt lat="54.11844287998974" lon="13.828604836016893">
        <ele>7.85</ele>
        <time>2023-12-29T10:16:41.543Z</time>
      </trkpt>
      <trkpt lat="54.118249006569386" lon="13.828710615634918">
        <ele>8.05</ele>
        <time>2023-12-29T10:16:45.453Z</time>
      </trkpt>
      <trkpt lat="54.11817365325987" lon="13.82875805720687">
        <ele>8.12</ele>
        <time>2023-12-29T10:16:49.366Z</time>
      </trkpt>
      <trkpt lat="54.1179908439517" lon="13.828865764662623">
        <ele>8.13</ele>
        <time>2023-12-29T10:16:53.285Z</time>
      </trkpt>
      <trkpt lat="54.11791984923184" lon="13.828903064131737">
        <ele>8.1</ele>
        <time>2023-12-29T10:16:57.207Z</time>
      </trkpt>
      <trkpt lat="54.11771574988961" lon="13.829010184854269">
        <ele>8.05</ele>
        <time>2023-12-29T10:17:01.136Z</time>
      </trkpt>
      <trkpt lat="54.11765699274838" lon="13.82904689759016">
        <ele>7.89</ele>
        <time>2023-12-29T10:17:05.067Z</time>
      </trkpt>
      <trkpt lat="54.11747032776475" lon="13.829104145988822">
        <ele>7.64</ele>
        <time>2023-12-29T10:17:09.004Z</time>
      </trkpt>
      <trkpt lat="54.11744459532201" lon="13.829170614480972">
        <ele>7.45</ele>
        <time>2023-12-29T10:17:12.943Z</time>
      </trkpt>
      <trkpt lat="54.11745373159647" lon="13.82920615375042">
        <ele>7.25</ele>
        <time>2023-12-29T10:17:16.883Z</time>
      </trkpt>
      <trkpt lat="54.1174643766135" lon="13.829240938648582">
        <ele>7.04</ele>
        <time>2023-12-29T10:17:20.824Z</time>
      </trkpt>
      <trkpt lat="54.11744434386492" lon="13.829364906996489">
        <ele>6.8</ele>
        <time>2023-12-29T10:17:24.767Z</time>
      </trkpt>
      <trkpt lat="54.11744928918779" lon="13.82956674322486">
        <ele>6.59</ele>
        <time>2023-12-29T10:17:28.714Z</time>
      </trkpt>
      <trkpt lat="54.117493545636535" lon="13.829891374334693">
        <ele>6.48</ele>
        <time>2023-12-29T10:17:32.668Z</time>
      </trkpt>
      <trkpt lat="54.11752983927727" lon="13.830139562487602">
        <ele>6.65</ele>
        <time>2023-12-29T10:17:36.627Z</time>
      </trkpt>
      <trkpt lat="54.11749731749296" lon="13.83034030906856">
        <ele>6.83</ele>
        <time>2023-12-29T10:17:40.590Z</time>
      </trkpt>
      <trkpt lat="54.11748650483787" lon="13.830623868852854">
        <ele>7.17</ele>
        <time>2023-12-29T10:17:44.558Z</time>
      </trkpt>
      <trkpt lat="54.11747166886926" lon="13.830764349550009">
        <ele>7.33</ele>
        <time>2023-12-29T10:17:48.529Z</time>
      </trkpt>
      <trkpt lat="54.11745239049196" lon="13.8307976257056">
        <ele>7.4</ele>
        <time>2023-12-29T10:17:52.501Z</time>
      </trkpt>
      <trkpt lat="54.11740209907293" lon="13.830875912681222">
        <ele>7.48</ele>
        <time>2023-12-29T10:17:56.475Z</time>
      </trkpt>
      <trkpt lat="54.117402266711" lon="13.830874403938651">
        <ele>7.55</ele>
        <time>2023-12-29T10:18:00.449Z</time>
      </trkpt>
    </trkseg>
  </trk>
</gpx>
